<?xml version='1.0' encoding='UTF-8'?>
<gpx version="1.1" creator="https://www.komoot.de" xmlns="http://www.topografix.com/GPX/1/1" xmlns:xsi="http://www.w3.org/2001/XMLSchema-instance" xsi:schemaLocation="http://www.topografix.com/GPX/1/1 http://www.topografix.com/GPX/1/1/gpx.xsd">
  <metadata>
    <name>Proper Cycling and Coffee , Hassocks to Horsted Keynes</name>
    <author>
      <link href="https://www.komoot.de">
        <text>komoot</text>
        <type>text/html</type>
      </link>
    </author>
  </metadata>
  <wpt lat="51.005079" lon="-0.066203">
    <name>East Mascalls Lane</name>
    <sym>Flag, Blue</sym>
  </wpt>
  <wpt lat="50.924310" lon="-0.144481">
    <name>Proper Cycling and Coffee Shop</name>
    <sym>Restaurant</sym>
  </wpt>
  <trk>
    <name>Proper Cycling and Coffee , Hassocks to Horsted Keynes</name>
    <trkseg>
      <trkpt lat="50.924339" lon="-0.142920">
        <ele>45.129606</ele>
        <time>2026-05-05T09:15:18.506Z</time>
      </trkpt>
      <trkpt lat="50.924330" lon="-0.142396">
        <ele>45.129606</ele>
        <time>2026-05-05T09:15:41.469Z</time>
      </trkpt>
      <trkpt lat="50.924330" lon="-0.142347">
        <ele>45.129606</ele>
        <time>2026-05-05T09:15:43.611Z</time>
      </trkpt>
      <trkpt lat="50.924365" lon="-0.142342">
        <ele>45.129606</ele>
        <time>2026-05-05T09:15:44.293Z</time>
      </trkpt>
      <trkpt lat="50.924357" lon="-0.142158">
        <ele>45.129606</ele>
        <time>2026-05-05T09:15:45.866Z</time>
      </trkpt>
      <trkpt lat="50.924310" lon="-0.141316">
        <ele>45.186776</ele>
        <time>2026-05-05T09:15:53.022Z</time>
      </trkpt>
      <trkpt lat="50.924274" lon="-0.141110">
        <ele>45.239463</ele>
        <time>2026-05-05T09:15:54.882Z</time>
      </trkpt>
      <trkpt lat="50.924253" lon="-0.141067">
        <ele>45.252869</ele>
        <time>2026-05-05T09:15:55.371Z</time>
      </trkpt>
      <trkpt lat="50.924211" lon="-0.140899">
        <ele>45.297413</ele>
        <time>2026-05-05T09:15:57.036Z</time>
      </trkpt>
      <trkpt lat="50.924013" lon="-0.140270">
        <ele>45.470694</ele>
        <time>2026-05-05T09:16:04.403Z</time>
      </trkpt>
      <trkpt lat="50.923925" lon="-0.139988">
        <ele>45.548247</ele>
        <time>2026-05-05T09:16:08.471Z</time>
      </trkpt>
      <trkpt lat="50.923847" lon="-0.139707">
        <ele>45.623922</ele>
        <time>2026-05-05T09:16:12.928Z</time>
      </trkpt>
      <trkpt lat="50.923797" lon="-0.139488">
        <ele>45.681329</ele>
        <time>2026-05-05T09:16:16.537Z</time>
      </trkpt>
      <trkpt lat="50.923659" lon="-0.138897">
        <ele>45.861665</ele>
        <time>2026-05-05T09:16:27.270Z</time>
      </trkpt>
      <trkpt lat="50.923583" lon="-0.138529">
        <ele>46.585810</ele>
        <time>2026-05-05T09:16:34.729Z</time>
      </trkpt>
      <trkpt lat="50.923532" lon="-0.138168">
        <ele>47.277621</ele>
        <time>2026-05-05T09:16:42.388Z</time>
      </trkpt>
      <trkpt lat="50.923502" lon="-0.137926">
        <ele>47.738825</ele>
        <time>2026-05-05T09:16:47.684Z</time>
      </trkpt>
      <trkpt lat="50.923417" lon="-0.137186">
        <ele>49.145403</ele>
        <time>2026-05-05T09:17:03.570Z</time>
      </trkpt>
      <trkpt lat="50.923266" lon="-0.136447">
        <ele>50.598116</ele>
        <time>2026-05-05T09:17:20.275Z</time>
      </trkpt>
      <trkpt lat="50.923219" lon="-0.136213">
        <ele>51.057371</ele>
        <time>2026-05-05T09:17:25.388Z</time>
      </trkpt>
      <trkpt lat="50.923085" lon="-0.135651">
        <ele>51.813742</ele>
        <time>2026-05-05T09:17:37.479Z</time>
      </trkpt>
      <trkpt lat="50.922933" lon="-0.135207">
        <ele>52.415825</ele>
        <time>2026-05-05T09:17:47.009Z</time>
      </trkpt>
      <trkpt lat="50.922855" lon="-0.134991">
        <ele>52.712465</ele>
        <time>2026-05-05T09:17:51.521Z</time>
      </trkpt>
      <trkpt lat="50.922673" lon="-0.134397">
        <ele>53.499493</ele>
        <time>2026-05-05T09:18:02.659Z</time>
      </trkpt>
      <trkpt lat="50.922578" lon="-0.133920">
        <ele>54.095609</ele>
        <time>2026-05-05T09:18:10.359Z</time>
      </trkpt>
      <trkpt lat="50.922554" lon="-0.133749">
        <ele>54.304372</ele>
        <time>2026-05-05T09:18:12.840Z</time>
      </trkpt>
      <trkpt lat="50.922519" lon="-0.133294">
        <ele>54.474537</ele>
        <time>2026-05-05T09:18:18.669Z</time>
      </trkpt>
      <trkpt lat="50.922500" lon="-0.133107">
        <ele>54.399028</ele>
        <time>2026-05-05T09:18:20.853Z</time>
      </trkpt>
      <trkpt lat="50.922419" lon="-0.132458">
        <ele>54.135284</ele>
        <time>2026-05-05T09:18:27.734Z</time>
      </trkpt>
      <trkpt lat="50.922405" lon="-0.132337">
        <ele>54.086242</ele>
        <time>2026-05-05T09:18:28.939Z</time>
      </trkpt>
      <trkpt lat="50.922377" lon="-0.132210">
        <ele>54.032607</ele>
        <time>2026-05-05T09:18:30.221Z</time>
      </trkpt>
      <trkpt lat="50.922198" lon="-0.132017">
        <ele>53.895735</ele>
        <time>2026-05-05T09:18:33.417Z</time>
      </trkpt>
      <trkpt lat="50.921991" lon="-0.131832">
        <ele>53.745483</ele>
        <time>2026-05-05T09:18:36.749Z</time>
      </trkpt>
      <trkpt lat="50.921453" lon="-0.132271">
        <ele>53.417608</ele>
        <time>2026-05-05T09:18:45.122Z</time>
      </trkpt>
      <trkpt lat="50.921157" lon="-0.132443">
        <ele>53.377611</ele>
        <time>2026-05-05T09:18:49.573Z</time>
      </trkpt>
      <trkpt lat="50.921013" lon="-0.132466">
        <ele>53.359248</ele>
        <time>2026-05-05T09:18:51.647Z</time>
      </trkpt>
      <trkpt lat="50.920583" lon="-0.132413">
        <ele>53.304526</ele>
        <time>2026-05-05T09:18:58.209Z</time>
      </trkpt>
      <trkpt lat="50.920235" lon="-0.132448">
        <ele>53.260283</ele>
        <time>2026-05-05T09:19:05.157Z</time>
      </trkpt>
      <trkpt lat="50.920217" lon="-0.132454">
        <ele>53.257949</ele>
        <time>2026-05-05T09:19:05.565Z</time>
      </trkpt>
      <trkpt lat="50.920046" lon="-0.132544">
        <ele>53.235090</ele>
        <time>2026-05-05T09:19:09.740Z</time>
      </trkpt>
      <trkpt lat="50.919829" lon="-0.132739">
        <ele>53.203446</ele>
        <time>2026-05-05T09:19:15.848Z</time>
      </trkpt>
      <trkpt lat="50.919718" lon="-0.132767">
        <ele>53.385885</ele>
        <time>2026-05-05T09:19:18.685Z</time>
      </trkpt>
      <trkpt lat="50.919673" lon="-0.132768">
        <ele>53.460702</ele>
        <time>2026-05-05T09:19:19.822Z</time>
      </trkpt>
      <trkpt lat="50.919238" lon="-0.132631">
        <ele>54.197981</ele>
        <time>2026-05-05T09:19:31.369Z</time>
      </trkpt>
      <trkpt lat="50.918948" lon="-0.132545">
        <ele>54.688442</ele>
        <time>2026-05-05T09:19:39.280Z</time>
      </trkpt>
      <trkpt lat="50.918367" lon="-0.132216">
        <ele>55.714023</ele>
        <time>2026-05-05T09:19:56.219Z</time>
      </trkpt>
      <trkpt lat="50.918199" lon="-0.132154">
        <ele>56.000773</ele>
        <time>2026-05-05T09:20:00.566Z</time>
      </trkpt>
      <trkpt lat="50.917534" lon="-0.131906">
        <ele>57.171064</ele>
        <time>2026-05-05T09:20:16.829Z</time>
      </trkpt>
      <trkpt lat="50.916264" lon="-0.131607">
        <ele>59.428900</ele>
        <time>2026-05-05T09:20:50.331Z</time>
      </trkpt>
      <trkpt lat="50.916067" lon="-0.131422">
        <ele>60.019518</ele>
        <time>2026-05-05T09:20:57.094Z</time>
      </trkpt>
      <trkpt lat="50.915862" lon="-0.130925">
        <ele>60.985507</ele>
        <time>2026-05-05T09:21:08.680Z</time>
      </trkpt>
      <trkpt lat="50.915877" lon="-0.130848">
        <ele>61.116588</ele>
        <time>2026-05-05T09:21:10.254Z</time>
      </trkpt>
      <trkpt lat="50.915662" lon="-0.130474">
        <ele>61.939801</ele>
        <time>2026-05-05T09:21:22.314Z</time>
      </trkpt>
      <trkpt lat="50.915539" lon="-0.130382">
        <ele>62.290631</ele>
        <time>2026-05-05T09:21:27.498Z</time>
      </trkpt>
      <trkpt lat="50.915228" lon="-0.130292">
        <ele>63.106199</ele>
        <time>2026-05-05T09:21:39.543Z</time>
      </trkpt>
      <trkpt lat="50.915081" lon="-0.130218">
        <ele>63.504074</ele>
        <time>2026-05-05T09:21:45.371Z</time>
      </trkpt>
      <trkpt lat="50.915024" lon="-0.130156">
        <ele>63.682380</ele>
        <time>2026-05-05T09:21:48.005Z</time>
      </trkpt>
      <trkpt lat="50.914992" lon="-0.130057">
        <ele>63.863332</ele>
        <time>2026-05-05T09:21:50.630Z</time>
      </trkpt>
      <trkpt lat="50.914955" lon="-0.129552">
        <ele>64.537896</ele>
        <time>2026-05-05T09:22:02.513Z</time>
      </trkpt>
      <trkpt lat="50.914944" lon="-0.129513">
        <ele>64.593401</ele>
        <time>2026-05-05T09:22:03.452Z</time>
      </trkpt>
      <trkpt lat="50.914878" lon="-0.129462">
        <ele>64.744678</ele>
        <time>2026-05-05T09:22:06.089Z</time>
      </trkpt>
      <trkpt lat="50.914758" lon="-0.129464">
        <ele>64.991957</ele>
        <time>2026-05-05T09:22:10.292Z</time>
      </trkpt>
      <trkpt lat="50.914215" lon="-0.129631">
        <ele>66.131672</ele>
        <time>2026-05-05T09:22:28.746Z</time>
      </trkpt>
      <trkpt lat="50.914021" lon="-0.129672">
        <ele>66.534951</ele>
        <time>2026-05-05T09:22:35.040Z</time>
      </trkpt>
      <trkpt lat="50.913062" lon="-0.129693">
        <ele>68.709070</ele>
        <time>2026-05-05T09:23:06.156Z</time>
      </trkpt>
      <trkpt lat="50.912259" lon="-0.129754">
        <ele>70.741616</ele>
        <time>2026-05-05T09:23:34.757Z</time>
      </trkpt>
      <trkpt lat="50.911458" lon="-0.129734">
        <ele>72.970019</ele>
        <time>2026-05-05T09:24:07.275Z</time>
      </trkpt>
      <trkpt lat="50.911409" lon="-0.129688">
        <ele>73.164366</ele>
        <time>2026-05-05T09:24:09.607Z</time>
      </trkpt>
      <trkpt lat="50.911375" lon="-0.129574">
        <ele>73.435763</ele>
        <time>2026-05-05T09:24:12.978Z</time>
      </trkpt>
      <trkpt lat="50.911432" lon="-0.128339">
        <ele>76.100679</ele>
        <time>2026-05-05T09:24:45.464Z</time>
      </trkpt>
      <trkpt lat="50.911394" lon="-0.127588">
        <ele>77.722079</ele>
        <time>2026-05-05T09:25:04.637Z</time>
      </trkpt>
      <trkpt lat="50.911321" lon="-0.127376">
        <ele>78.241920</ele>
        <time>2026-05-05T09:25:10.620Z</time>
      </trkpt>
      <trkpt lat="50.911210" lon="-0.127285">
        <ele>78.628587</ele>
        <time>2026-05-05T09:25:15.496Z</time>
      </trkpt>
      <trkpt lat="50.911103" lon="-0.127241">
        <ele>78.961986</ele>
        <time>2026-05-05T09:25:19.753Z</time>
      </trkpt>
      <trkpt lat="50.910891" lon="-0.127221">
        <ele>79.602540</ele>
        <time>2026-05-05T09:25:27.925Z</time>
      </trkpt>
      <trkpt lat="50.909910" lon="-0.127383">
        <ele>82.577379</ele>
        <time>2026-05-05T09:26:06.899Z</time>
      </trkpt>
      <trkpt lat="50.908593" lon="-0.127693">
        <ele>84.958914</ele>
        <time>2026-05-05T09:26:55.607Z</time>
      </trkpt>
      <trkpt lat="50.908467" lon="-0.127682">
        <ele>85.120667</ele>
        <time>2026-05-05T09:26:59.227Z</time>
      </trkpt>
      <trkpt lat="50.908454" lon="-0.127365">
        <ele>85.377429</ele>
        <time>2026-05-05T09:27:04.540Z</time>
      </trkpt>
      <trkpt lat="50.908413" lon="-0.126408">
        <ele>86.022305</ele>
        <time>2026-05-05T09:27:18.476Z</time>
      </trkpt>
      <trkpt lat="50.908372" lon="-0.126076">
        <ele>85.924749</ele>
        <time>2026-05-05T09:27:22.932Z</time>
      </trkpt>
      <trkpt lat="50.908173" lon="-0.124987">
        <ele>85.597795</ele>
        <time>2026-05-05T09:27:37.546Z</time>
      </trkpt>
      <trkpt lat="50.908167" lon="-0.124680">
        <ele>85.509224</ele>
        <time>2026-05-05T09:27:41.777Z</time>
      </trkpt>
      <trkpt lat="50.908216" lon="-0.124150">
        <ele>85.354754</ele>
        <time>2026-05-05T09:27:49.611Z</time>
      </trkpt>
      <trkpt lat="50.908280" lon="-0.123764">
        <ele>85.239661</ele>
        <time>2026-05-05T09:27:55.893Z</time>
      </trkpt>
      <trkpt lat="50.908526" lon="-0.122836">
        <ele>85.740849</ele>
        <time>2026-05-05T09:28:13.542Z</time>
      </trkpt>
      <trkpt lat="50.908600" lon="-0.122375">
        <ele>85.985059</ele>
        <time>2026-05-05T09:28:22.504Z</time>
      </trkpt>
      <trkpt lat="50.908620" lon="-0.121942">
        <ele>86.207942</ele>
        <time>2026-05-05T09:28:30.757Z</time>
      </trkpt>
      <trkpt lat="50.908609" lon="-0.121312">
        <ele>86.531487</ele>
        <time>2026-05-05T09:28:42.462Z</time>
      </trkpt>
      <trkpt lat="50.908587" lon="-0.120636">
        <ele>86.863705</ele>
        <time>2026-05-05T09:28:54.544Z</time>
      </trkpt>
      <trkpt lat="50.908544" lon="-0.119013">
        <ele>87.627072</ele>
        <time>2026-05-05T09:29:20.879Z</time>
      </trkpt>
      <trkpt lat="50.908503" lon="-0.118387">
        <ele>87.922831</ele>
        <time>2026-05-05T09:29:31.518Z</time>
      </trkpt>
      <trkpt lat="50.908469" lon="-0.117640">
        <ele>88.623641</ele>
        <time>2026-05-05T09:29:43.971Z</time>
      </trkpt>
      <trkpt lat="50.908426" lon="-0.117262">
        <ele>89.071044</ele>
        <time>2026-05-05T09:29:51.611Z</time>
      </trkpt>
      <trkpt lat="50.908349" lon="-0.116810">
        <ele>89.616410</ele>
        <time>2026-05-05T09:29:59.509Z</time>
      </trkpt>
      <trkpt lat="50.908195" lon="-0.116242">
        <ele>90.336587</ele>
        <time>2026-05-05T09:30:09.680Z</time>
      </trkpt>
      <trkpt lat="50.908169" lon="-0.116063">
        <ele>90.550547</ele>
        <time>2026-05-05T09:30:12.783Z</time>
      </trkpt>
      <trkpt lat="50.908170" lon="-0.115884">
        <ele>90.759056</ele>
        <time>2026-05-05T09:30:15.908Z</time>
      </trkpt>
      <trkpt lat="50.908191" lon="-0.115723">
        <ele>90.950561</ele>
        <time>2026-05-05T09:30:19.377Z</time>
      </trkpt>
      <trkpt lat="50.908242" lon="-0.115492">
        <ele>91.235647</ele>
        <time>2026-05-05T09:30:24.570Z</time>
      </trkpt>
      <trkpt lat="50.908304" lon="-0.115401">
        <ele>91.412414</ele>
        <time>2026-05-05T09:30:26.813Z</time>
      </trkpt>
      <trkpt lat="50.908342" lon="-0.115269">
        <ele>91.696948</ele>
        <time>2026-05-05T09:30:29.315Z</time>
      </trkpt>
      <trkpt lat="50.908382" lon="-0.113985">
        <ele>94.217771</ele>
        <time>2026-05-05T09:30:51.322Z</time>
      </trkpt>
      <trkpt lat="50.908353" lon="-0.113236">
        <ele>95.689225</ele>
        <time>2026-05-05T09:31:07.917Z</time>
      </trkpt>
      <trkpt lat="50.908285" lon="-0.112604">
        <ele>96.946405</ele>
        <time>2026-05-05T09:31:24.651Z</time>
      </trkpt>
      <trkpt lat="50.908224" lon="-0.112338">
        <ele>97.462598</ele>
        <time>2026-05-05T09:31:32.276Z</time>
      </trkpt>
      <trkpt lat="50.908126" lon="-0.112061">
        <ele>98.041192</ele>
        <time>2026-05-05T09:31:40.958Z</time>
      </trkpt>
      <trkpt lat="50.907881" lon="-0.111757">
        <ele>98.939877</ele>
        <time>2026-05-05T09:31:54.184Z</time>
      </trkpt>
      <trkpt lat="50.907841" lon="-0.111633">
        <ele>99.193605</ele>
        <time>2026-05-05T09:31:57.668Z</time>
      </trkpt>
      <trkpt lat="50.907824" lon="-0.111471">
        <ele>99.492772</ele>
        <time>2026-05-05T09:32:01.648Z</time>
      </trkpt>
      <trkpt lat="50.907782" lon="-0.110945">
        <ele>100.458619</ele>
        <time>2026-05-05T09:32:12.768Z</time>
      </trkpt>
      <trkpt lat="50.907669" lon="-0.110270">
        <ele>101.730839</ele>
        <time>2026-05-05T09:32:23.136Z</time>
      </trkpt>
      <trkpt lat="50.907620" lon="-0.109216">
        <ele>100.974830</ele>
        <time>2026-05-05T09:32:32.550Z</time>
      </trkpt>
      <trkpt lat="50.907625" lon="-0.109066">
        <ele>100.761071</ele>
        <time>2026-05-05T09:32:33.729Z</time>
      </trkpt>
      <trkpt lat="50.908103" lon="-0.106599">
        <ele>97.315091</ele>
        <time>2026-05-05T09:32:53.604Z</time>
      </trkpt>
      <trkpt lat="50.908063" lon="-0.106058">
        <ele>96.715126</ele>
        <time>2026-05-05T09:32:58.307Z</time>
      </trkpt>
      <trkpt lat="50.907935" lon="-0.105176">
        <ele>95.718252</ele>
        <time>2026-05-05T09:33:06.760Z</time>
      </trkpt>
      <trkpt lat="50.907924" lon="-0.105100">
        <ele>95.632365</ele>
        <time>2026-05-05T09:33:07.532Z</time>
      </trkpt>
      <trkpt lat="50.907804" lon="-0.104372">
        <ele>94.859892</ele>
        <time>2026-05-05T09:33:14.468Z</time>
      </trkpt>
      <trkpt lat="50.907688" lon="-0.103607">
        <ele>94.327080</ele>
        <time>2026-05-05T09:33:21.025Z</time>
      </trkpt>
      <trkpt lat="50.907559" lon="-0.102586">
        <ele>93.621934</ele>
        <time>2026-05-05T09:33:29.790Z</time>
      </trkpt>
      <trkpt lat="50.907418" lon="-0.102030">
        <ele>93.216111</ele>
        <time>2026-05-05T09:33:35.466Z</time>
      </trkpt>
      <trkpt lat="50.907382" lon="-0.101872">
        <ele>93.102345</ele>
        <time>2026-05-05T09:33:37.149Z</time>
      </trkpt>
      <trkpt lat="50.907209" lon="-0.101127">
        <ele>94.062344</ele>
        <time>2026-05-05T09:33:48.249Z</time>
      </trkpt>
      <trkpt lat="50.907011" lon="-0.100126">
        <ele>95.698115</ele>
        <time>2026-05-05T09:34:08.772Z</time>
      </trkpt>
      <trkpt lat="50.906995" lon="-0.100026">
        <ele>95.858979</ele>
        <time>2026-05-05T09:34:11.081Z</time>
      </trkpt>
      <trkpt lat="50.906911" lon="-0.099560">
        <ele>96.614685</ele>
        <time>2026-05-05T09:34:21.983Z</time>
      </trkpt>
      <trkpt lat="50.906870" lon="-0.099327">
        <ele>96.991866</ele>
        <time>2026-05-05T09:34:27.567Z</time>
      </trkpt>
      <trkpt lat="50.906841" lon="-0.099155">
        <ele>97.269475</ele>
        <time>2026-05-05T09:34:31.609Z</time>
      </trkpt>
      <trkpt lat="50.906667" lon="-0.098508">
        <ele>98.168820</ele>
        <time>2026-05-05T09:34:47.940Z</time>
      </trkpt>
      <trkpt lat="50.906589" lon="-0.098240">
        <ele>98.528174</ele>
        <time>2026-05-05T09:34:54.514Z</time>
      </trkpt>
      <trkpt lat="50.906599" lon="-0.098098">
        <ele>98.702127</ele>
        <time>2026-05-05T09:34:57.459Z</time>
      </trkpt>
      <trkpt lat="50.906641" lon="-0.097871">
        <ele>98.990140</ele>
        <time>2026-05-05T09:35:01.984Z</time>
      </trkpt>
      <trkpt lat="50.906585" lon="-0.097747">
        <ele>99.175827</ele>
        <time>2026-05-05T09:35:04.681Z</time>
      </trkpt>
      <trkpt lat="50.906555" lon="-0.097610">
        <ele>99.352389</ele>
        <time>2026-05-05T09:35:07.155Z</time>
      </trkpt>
      <trkpt lat="50.906531" lon="-0.097435">
        <ele>99.570425</ele>
        <time>2026-05-05T09:35:10.095Z</time>
      </trkpt>
      <trkpt lat="50.906533" lon="-0.097109">
        <ele>99.967335</ele>
        <time>2026-05-05T09:35:15.096Z</time>
      </trkpt>
      <trkpt lat="50.906590" lon="-0.096612">
        <ele>100.582337</ele>
        <time>2026-05-05T09:35:22.037Z</time>
      </trkpt>
      <trkpt lat="50.906621" lon="-0.096282">
        <ele>100.866255</ele>
        <time>2026-05-05T09:35:26.062Z</time>
      </trkpt>
      <trkpt lat="50.906609" lon="-0.096074">
        <ele>100.501875</ele>
        <time>2026-05-05T09:35:28.196Z</time>
      </trkpt>
      <trkpt lat="50.906417" lon="-0.094995">
        <ele>98.546001</ele>
        <time>2026-05-05T09:35:37.537Z</time>
      </trkpt>
      <trkpt lat="50.906379" lon="-0.094784">
        <ele>98.163183</ele>
        <time>2026-05-05T09:35:39.208Z</time>
      </trkpt>
      <trkpt lat="50.906106" lon="-0.093239">
        <ele>95.038475</ele>
        <time>2026-05-05T09:35:50.897Z</time>
      </trkpt>
      <trkpt lat="50.906018" lon="-0.092482">
        <ele>92.964799</ele>
        <time>2026-05-05T09:35:56.397Z</time>
      </trkpt>
      <trkpt lat="50.906015" lon="-0.092438">
        <ele>92.845574</ele>
        <time>2026-05-05T09:35:56.711Z</time>
      </trkpt>
      <trkpt lat="50.906006" lon="-0.092167">
        <ele>92.114504</ele>
        <time>2026-05-05T09:35:58.659Z</time>
      </trkpt>
      <trkpt lat="50.905964" lon="-0.091165">
        <ele>89.409213</ele>
        <time>2026-05-05T09:36:05.952Z</time>
      </trkpt>
      <trkpt lat="50.905945" lon="-0.090952">
        <ele>88.829690</ele>
        <time>2026-05-05T09:36:07.536Z</time>
      </trkpt>
      <trkpt lat="50.905926" lon="-0.090738">
        <ele>88.268429</ele>
        <time>2026-05-05T09:36:09.149Z</time>
      </trkpt>
      <trkpt lat="50.905824" lon="-0.090239">
        <ele>87.814833</ele>
        <time>2026-05-05T09:36:13.265Z</time>
      </trkpt>
      <trkpt lat="50.905518" lon="-0.089270">
        <ele>86.877727</ele>
        <time>2026-05-05T09:36:22.602Z</time>
      </trkpt>
      <trkpt lat="50.905212" lon="-0.088510">
        <ele>86.098003</ele>
        <time>2026-05-05T09:36:31.954Z</time>
      </trkpt>
      <trkpt lat="50.905116" lon="-0.088203">
        <ele>85.809212</ele>
        <time>2026-05-05T09:36:36.188Z</time>
      </trkpt>
      <trkpt lat="50.905062" lon="-0.088138">
        <ele>85.784710</ele>
        <time>2026-05-05T09:36:37.595Z</time>
      </trkpt>
      <trkpt lat="50.904987" lon="-0.087756">
        <ele>85.693526</ele>
        <time>2026-05-05T09:36:42.978Z</time>
      </trkpt>
      <trkpt lat="50.904817" lon="-0.086400">
        <ele>85.378433</ele>
        <time>2026-05-05T09:36:57.992Z</time>
      </trkpt>
      <trkpt lat="50.904745" lon="-0.086017">
        <ele>85.287347</ele>
        <time>2026-05-05T09:37:01.652Z</time>
      </trkpt>
      <trkpt lat="50.904511" lon="-0.085231">
        <ele>85.226549</ele>
        <time>2026-05-05T09:37:09.510Z</time>
      </trkpt>
      <trkpt lat="50.904359" lon="-0.084573">
        <ele>85.368859</ele>
        <time>2026-05-05T09:37:16.037Z</time>
      </trkpt>
      <trkpt lat="50.904294" lon="-0.084146">
        <ele>85.458065</ele>
        <time>2026-05-05T09:37:20.433Z</time>
      </trkpt>
      <trkpt lat="50.904000" lon="-0.081715">
        <ele>85.825547</ele>
        <time>2026-05-05T09:38:00.071Z</time>
      </trkpt>
      <trkpt lat="50.903937" lon="-0.080873">
        <ele>85.891757</ele>
        <time>2026-05-05T09:38:11.232Z</time>
      </trkpt>
      <trkpt lat="50.904327" lon="-0.080745">
        <ele>85.941072</ele>
        <time>2026-05-05T09:38:19.682Z</time>
      </trkpt>
      <trkpt lat="50.904678" lon="-0.080580">
        <ele>85.210496</ele>
        <time>2026-05-05T09:38:26.570Z</time>
      </trkpt>
      <trkpt lat="50.905046" lon="-0.080514">
        <ele>83.682386</ele>
        <time>2026-05-05T09:38:32.865Z</time>
      </trkpt>
      <trkpt lat="50.906310" lon="-0.080452">
        <ele>78.455266</ele>
        <time>2026-05-05T09:38:53.371Z</time>
      </trkpt>
      <trkpt lat="50.907002" lon="-0.080469">
        <ele>75.264104</ele>
        <time>2026-05-05T09:39:04.718Z</time>
      </trkpt>
      <trkpt lat="50.907549" lon="-0.080568">
        <ele>72.725541</ele>
        <time>2026-05-05T09:39:13.796Z</time>
      </trkpt>
      <trkpt lat="50.908154" lon="-0.080469">
        <ele>69.985956</ele>
        <time>2026-05-05T09:39:23.835Z</time>
      </trkpt>
      <trkpt lat="50.908564" lon="-0.080383">
        <ele>68.456357</ele>
        <time>2026-05-05T09:39:30.695Z</time>
      </trkpt>
      <trkpt lat="50.909069" lon="-0.080225">
        <ele>66.552604</ele>
        <time>2026-05-05T09:39:39.368Z</time>
      </trkpt>
      <trkpt lat="50.909618" lon="-0.080329">
        <ele>64.507683</ele>
        <time>2026-05-05T09:39:48.976Z</time>
      </trkpt>
      <trkpt lat="50.909763" lon="-0.080326">
        <ele>63.971352</ele>
        <time>2026-05-05T09:39:51.552Z</time>
      </trkpt>
      <trkpt lat="50.909869" lon="-0.080290">
        <ele>63.579669</ele>
        <time>2026-05-05T09:39:53.480Z</time>
      </trkpt>
      <trkpt lat="50.910667" lon="-0.080025">
        <ele>61.632760</ele>
        <time>2026-05-05T09:40:08.345Z</time>
      </trkpt>
      <trkpt lat="50.911748" lon="-0.079781">
        <ele>59.147275</ele>
        <time>2026-05-05T09:40:28.659Z</time>
      </trkpt>
      <trkpt lat="50.912733" lon="-0.079637">
        <ele>57.828147</ele>
        <time>2026-05-05T09:40:47.519Z</time>
      </trkpt>
      <trkpt lat="50.913142" lon="-0.079504">
        <ele>57.271374</ele>
        <time>2026-05-05T09:40:56.125Z</time>
      </trkpt>
      <trkpt lat="50.913918" lon="-0.079717">
        <ele>57.065447</ele>
        <time>2026-05-05T09:41:15.904Z</time>
      </trkpt>
      <trkpt lat="50.914046" lon="-0.079753">
        <ele>57.106797</ele>
        <time>2026-05-05T09:41:19.666Z</time>
      </trkpt>
      <trkpt lat="50.914244" lon="-0.079807">
        <ele>57.170702</ele>
        <time>2026-05-05T09:41:25.632Z</time>
      </trkpt>
      <trkpt lat="50.915219" lon="-0.080244">
        <ele>57.420869</ele>
        <time>2026-05-05T09:41:52.756Z</time>
      </trkpt>
      <trkpt lat="50.915300" lon="-0.080280">
        <ele>57.340511</ele>
        <time>2026-05-05T09:41:54.777Z</time>
      </trkpt>
      <trkpt lat="50.915548" lon="-0.080218">
        <ele>57.100677</ele>
        <time>2026-05-05T09:42:00.447Z</time>
      </trkpt>
      <trkpt lat="50.915867" lon="-0.079951">
        <ele>56.756117</ele>
        <time>2026-05-05T09:42:08.142Z</time>
      </trkpt>
      <trkpt lat="50.916337" lon="-0.079515">
        <ele>56.235986</ele>
        <time>2026-05-05T09:42:18.833Z</time>
      </trkpt>
      <trkpt lat="50.916546" lon="-0.079321">
        <ele>56.004658</ele>
        <time>2026-05-05T09:42:23.572Z</time>
      </trkpt>
      <trkpt lat="50.916679" lon="-0.079263">
        <ele>55.872892</ele>
        <time>2026-05-05T09:42:26.305Z</time>
      </trkpt>
      <trkpt lat="50.916852" lon="-0.079187">
        <ele>55.774858</ele>
        <time>2026-05-05T09:42:29.901Z</time>
      </trkpt>
      <trkpt lat="50.917607" lon="-0.078890">
        <ele>56.017863</ele>
        <time>2026-05-05T09:42:45.875Z</time>
      </trkpt>
      <trkpt lat="50.918321" lon="-0.078647">
        <ele>56.245990</ele>
        <time>2026-05-05T09:43:05.006Z</time>
      </trkpt>
      <trkpt lat="50.919121" lon="-0.078879">
        <ele>58.862043</ele>
        <time>2026-05-05T09:43:38.969Z</time>
      </trkpt>
      <trkpt lat="50.920358" lon="-0.078866">
        <ele>64.190995</ele>
        <time>2026-05-05T09:44:42.626Z</time>
      </trkpt>
      <trkpt lat="50.920485" lon="-0.078867">
        <ele>64.152539</ele>
        <time>2026-05-05T09:44:48.232Z</time>
      </trkpt>
      <trkpt lat="50.920743" lon="-0.078642">
        <ele>64.063389</ele>
        <time>2026-05-05T09:44:59.645Z</time>
      </trkpt>
      <trkpt lat="50.921604" lon="-0.078521">
        <ele>63.801659</ele>
        <time>2026-05-05T09:45:19.946Z</time>
      </trkpt>
      <trkpt lat="50.921799" lon="-0.078845">
        <ele>63.716154</ele>
        <time>2026-05-05T09:45:24.688Z</time>
      </trkpt>
      <trkpt lat="50.922020" lon="-0.079079">
        <ele>63.356553</ele>
        <time>2026-05-05T09:45:29.023Z</time>
      </trkpt>
      <trkpt lat="50.922095" lon="-0.079148">
        <ele>62.884610</ele>
        <time>2026-05-05T09:45:30.434Z</time>
      </trkpt>
      <trkpt lat="50.922270" lon="-0.079218">
        <ele>61.902201</ele>
        <time>2026-05-05T09:45:33.306Z</time>
      </trkpt>
      <trkpt lat="50.922666" lon="-0.079259">
        <ele>59.742032</ele>
        <time>2026-05-05T09:45:39.536Z</time>
      </trkpt>
      <trkpt lat="50.923805" lon="-0.079574">
        <ele>53.610796</ele>
        <time>2026-05-05T09:45:57.751Z</time>
      </trkpt>
      <trkpt lat="50.923969" lon="-0.079614">
        <ele>53.062585</ele>
        <time>2026-05-05T09:46:00.495Z</time>
      </trkpt>
      <trkpt lat="50.924227" lon="-0.079541">
        <ele>52.196719</ele>
        <time>2026-05-05T09:46:04.865Z</time>
      </trkpt>
      <trkpt lat="50.925498" lon="-0.078825">
        <ele>47.941116</ele>
        <time>2026-05-05T09:46:28.801Z</time>
      </trkpt>
      <trkpt lat="50.925841" lon="-0.078597">
        <ele>48.094673</ele>
        <time>2026-05-05T09:46:36.959Z</time>
      </trkpt>
      <trkpt lat="50.926065" lon="-0.078578">
        <ele>48.187297</ele>
        <time>2026-05-05T09:46:42.752Z</time>
      </trkpt>
      <trkpt lat="50.926818" lon="-0.078658">
        <ele>48.498914</ele>
        <time>2026-05-05T09:47:05.884Z</time>
      </trkpt>
      <trkpt lat="50.927067" lon="-0.078840">
        <ele>48.612115</ele>
        <time>2026-05-05T09:47:15.403Z</time>
      </trkpt>
      <trkpt lat="50.927807" lon="-0.079243">
        <ele>48.244508</ele>
        <time>2026-05-05T09:47:38.578Z</time>
      </trkpt>
      <trkpt lat="50.927889" lon="-0.079261">
        <ele>48.192423</ele>
        <time>2026-05-05T09:47:40.433Z</time>
      </trkpt>
      <trkpt lat="50.928672" lon="-0.079146">
        <ele>47.697659</ele>
        <time>2026-05-05T09:47:56.153Z</time>
      </trkpt>
      <trkpt lat="50.928992" lon="-0.079157">
        <ele>47.389117</ele>
        <time>2026-05-05T09:48:01.974Z</time>
      </trkpt>
      <trkpt lat="50.929209" lon="-0.079260">
        <ele>46.791398</ele>
        <time>2026-05-05T09:48:05.989Z</time>
      </trkpt>
      <trkpt lat="50.929352" lon="-0.079279">
        <ele>46.412714</ele>
        <time>2026-05-05T09:48:08.524Z</time>
      </trkpt>
      <trkpt lat="50.929473" lon="-0.079275">
        <ele>46.093338</ele>
        <time>2026-05-05T09:48:10.657Z</time>
      </trkpt>
      <trkpt lat="50.929579" lon="-0.079243">
        <ele>45.808596</ele>
        <time>2026-05-05T09:48:12.555Z</time>
      </trkpt>
      <trkpt lat="50.930968" lon="-0.078536">
        <ele>42.210271</ele>
        <time>2026-05-05T09:48:38.792Z</time>
      </trkpt>
      <trkpt lat="50.931258" lon="-0.078409">
        <ele>41.658247</ele>
        <time>2026-05-05T09:48:44.449Z</time>
      </trkpt>
      <trkpt lat="50.931500" lon="-0.078395">
        <ele>41.213901</ele>
        <time>2026-05-05T09:48:49.037Z</time>
      </trkpt>
      <trkpt lat="50.931785" lon="-0.078413">
        <ele>40.690534</ele>
        <time>2026-05-05T09:48:54.488Z</time>
      </trkpt>
      <trkpt lat="50.932121" lon="-0.078356">
        <ele>40.070487</ele>
        <time>2026-05-05T09:49:01.119Z</time>
      </trkpt>
      <trkpt lat="50.933066" lon="-0.078119">
        <ele>39.841039</ele>
        <time>2026-05-05T09:49:21.262Z</time>
      </trkpt>
      <trkpt lat="50.933173" lon="-0.078075">
        <ele>39.903209</ele>
        <time>2026-05-05T09:49:24.027Z</time>
      </trkpt>
      <trkpt lat="50.933275" lon="-0.078037">
        <ele>39.962139</ele>
        <time>2026-05-05T09:49:26.661Z</time>
      </trkpt>
      <trkpt lat="50.933526" lon="-0.077890">
        <ele>40.112623</ele>
        <time>2026-05-05T09:49:32.138Z</time>
      </trkpt>
      <trkpt lat="50.933608" lon="-0.077836">
        <ele>40.162558</ele>
        <time>2026-05-05T09:49:34.200Z</time>
      </trkpt>
      <trkpt lat="50.933870" lon="-0.077665">
        <ele>40.321899</ele>
        <time>2026-05-05T09:49:41.196Z</time>
      </trkpt>
      <trkpt lat="50.934703" lon="-0.077149">
        <ele>42.562662</ele>
        <time>2026-05-05T09:50:08.669Z</time>
      </trkpt>
      <trkpt lat="50.935144" lon="-0.076974">
        <ele>44.163931</ele>
        <time>2026-05-05T09:50:24.810Z</time>
      </trkpt>
      <trkpt lat="50.935824" lon="-0.076739">
        <ele>46.615389</ele>
        <time>2026-05-05T09:50:50.922Z</time>
      </trkpt>
      <trkpt lat="50.936432" lon="-0.076493">
        <ele>49.098575</ele>
        <time>2026-05-05T09:51:15.587Z</time>
      </trkpt>
      <trkpt lat="50.936869" lon="-0.076291">
        <ele>50.921252</ele>
        <time>2026-05-05T09:51:33.448Z</time>
      </trkpt>
      <trkpt lat="50.937082" lon="-0.076163">
        <ele>51.833312</ele>
        <time>2026-05-05T09:51:41.481Z</time>
      </trkpt>
      <trkpt lat="50.937674" lon="-0.075718">
        <ele>54.406896</ele>
        <time>2026-05-05T09:52:04.249Z</time>
      </trkpt>
      <trkpt lat="50.937846" lon="-0.075615">
        <ele>55.056909</ele>
        <time>2026-05-05T09:52:10.493Z</time>
      </trkpt>
      <trkpt lat="50.938147" lon="-0.075558">
        <ele>56.128725</ele>
        <time>2026-05-05T09:52:20.860Z</time>
      </trkpt>
      <trkpt lat="50.938259" lon="-0.075577">
        <ele>56.526987</ele>
        <time>2026-05-05T09:52:24.834Z</time>
      </trkpt>
      <trkpt lat="50.938434" lon="-0.075680">
        <ele>57.186934</ele>
        <time>2026-05-05T09:52:31.319Z</time>
      </trkpt>
      <trkpt lat="50.939109" lon="-0.076037">
        <ele>59.702635</ele>
        <time>2026-05-05T09:52:55.522Z</time>
      </trkpt>
      <trkpt lat="50.939273" lon="-0.076195">
        <ele>60.380993</ele>
        <time>2026-05-05T09:53:02.673Z</time>
      </trkpt>
      <trkpt lat="50.939645" lon="-0.076650">
        <ele>61.564299</ele>
        <time>2026-05-05T09:53:20.000Z</time>
      </trkpt>
      <trkpt lat="50.940266" lon="-0.077267">
        <ele>63.404996</ele>
        <time>2026-05-05T09:53:44.114Z</time>
      </trkpt>
      <trkpt lat="50.940622" lon="-0.077475">
        <ele>64.358073</ele>
        <time>2026-05-05T09:53:54.088Z</time>
      </trkpt>
      <trkpt lat="50.941091" lon="-0.077647">
        <ele>64.506042</ele>
        <time>2026-05-05T09:54:04.086Z</time>
      </trkpt>
      <trkpt lat="50.941907" lon="-0.077695">
        <ele>63.238784</ele>
        <time>2026-05-05T09:54:15.441Z</time>
      </trkpt>
      <trkpt lat="50.942381" lon="-0.077686">
        <ele>62.503109</ele>
        <time>2026-05-05T09:54:21.297Z</time>
      </trkpt>
      <trkpt lat="50.942574" lon="-0.077737">
        <ele>62.199460</ele>
        <time>2026-05-05T09:54:23.665Z</time>
      </trkpt>
      <trkpt lat="50.943093" lon="-0.078071">
        <ele>60.763077</ele>
        <time>2026-05-05T09:54:30.513Z</time>
      </trkpt>
      <trkpt lat="50.943901" lon="-0.078449">
        <ele>58.516661</ele>
        <time>2026-05-05T09:54:41.321Z</time>
      </trkpt>
      <trkpt lat="50.943961" lon="-0.078244">
        <ele>58.136854</ele>
        <time>2026-05-05T09:54:43.107Z</time>
      </trkpt>
      <trkpt lat="50.944035" lon="-0.078092">
        <ele>57.814094</ele>
        <time>2026-05-05T09:54:44.650Z</time>
      </trkpt>
      <trkpt lat="50.944392" lon="-0.077695">
        <ele>56.554410</ele>
        <time>2026-05-05T09:54:50.127Z</time>
      </trkpt>
      <trkpt lat="50.944519" lon="-0.077638">
        <ele>56.151517</ele>
        <time>2026-05-05T09:54:51.748Z</time>
      </trkpt>
      <trkpt lat="50.944827" lon="-0.077662">
        <ele>55.210161</ele>
        <time>2026-05-05T09:54:55.520Z</time>
      </trkpt>
      <trkpt lat="50.945207" lon="-0.077803">
        <ele>54.018865</ele>
        <time>2026-05-05T09:55:00.207Z</time>
      </trkpt>
      <trkpt lat="50.945459" lon="-0.077772">
        <ele>53.247284</ele>
        <time>2026-05-05T09:55:03.179Z</time>
      </trkpt>
      <trkpt lat="50.945627" lon="-0.077705">
        <ele>52.718492</ele>
        <time>2026-05-05T09:55:05.199Z</time>
      </trkpt>
      <trkpt lat="50.945777" lon="-0.077505">
        <ele>52.120457</ele>
        <time>2026-05-05T09:55:07.571Z</time>
      </trkpt>
      <trkpt lat="50.945833" lon="-0.077371">
        <ele>51.819758</ele>
        <time>2026-05-05T09:55:08.822Z</time>
      </trkpt>
      <trkpt lat="50.946036" lon="-0.073325">
        <ele>47.698620</ele>
        <time>2026-05-05T09:55:43.802Z</time>
      </trkpt>
      <trkpt lat="50.946300" lon="-0.070783">
        <ele>46.918242</ele>
        <time>2026-05-05T09:56:08.556Z</time>
      </trkpt>
      <trkpt lat="50.946442" lon="-0.069666">
        <ele>47.336406</ele>
        <time>2026-05-05T09:56:23.559Z</time>
      </trkpt>
      <trkpt lat="50.946583" lon="-0.068745">
        <ele>47.828132</ele>
        <time>2026-05-05T09:56:39.385Z</time>
      </trkpt>
      <trkpt lat="50.946866" lon="-0.066938">
        <ele>50.094010</ele>
        <time>2026-05-05T09:57:13.019Z</time>
      </trkpt>
      <trkpt lat="50.946868" lon="-0.066878">
        <ele>50.167126</ele>
        <time>2026-05-05T09:57:14.072Z</time>
      </trkpt>
      <trkpt lat="50.946861" lon="-0.066744">
        <ele>50.330752</ele>
        <time>2026-05-05T09:57:16.385Z</time>
      </trkpt>
      <trkpt lat="50.946845" lon="-0.066420">
        <ele>50.726239</ele>
        <time>2026-05-05T09:57:21.872Z</time>
      </trkpt>
      <trkpt lat="50.946442" lon="-0.062603">
        <ele>54.184156</ele>
        <time>2026-05-05T09:58:19.556Z</time>
      </trkpt>
      <trkpt lat="50.946436" lon="-0.062383">
        <ele>54.420284</ele>
        <time>2026-05-05T09:58:23.350Z</time>
      </trkpt>
      <trkpt lat="50.946490" lon="-0.062172">
        <ele>54.664493</ele>
        <time>2026-05-05T09:58:27.409Z</time>
      </trkpt>
      <trkpt lat="50.947231" lon="-0.060765">
        <ele>56.459894</ele>
        <time>2026-05-05T09:59:00.164Z</time>
      </trkpt>
      <trkpt lat="50.947290" lon="-0.060654">
        <ele>56.436267</ele>
        <time>2026-05-05T09:59:02.637Z</time>
      </trkpt>
      <trkpt lat="50.947955" lon="-0.059214">
        <ele>56.145808</ele>
        <time>2026-05-05T09:59:20.904Z</time>
      </trkpt>
      <trkpt lat="50.947677" lon="-0.058933">
        <ele>56.060704</ele>
        <time>2026-05-05T09:59:25.512Z</time>
      </trkpt>
      <trkpt lat="50.947429" lon="-0.058618">
        <ele>55.797428</ele>
        <time>2026-05-05T09:59:29.936Z</time>
      </trkpt>
      <trkpt lat="50.947744" lon="-0.058043">
        <ele>55.101630</ele>
        <time>2026-05-05T09:59:36.498Z</time>
      </trkpt>
      <trkpt lat="50.948070" lon="-0.057660">
        <ele>54.513778</ele>
        <time>2026-05-05T09:59:42.075Z</time>
      </trkpt>
      <trkpt lat="50.948325" lon="-0.057387">
        <ele>54.067973</ele>
        <time>2026-05-05T09:59:46.675Z</time>
      </trkpt>
      <trkpt lat="50.949098" lon="-0.056567">
        <ele>52.468562</ele>
        <time>2026-05-05T09:59:59.340Z</time>
      </trkpt>
      <trkpt lat="50.950074" lon="-0.055654">
        <ele>50.227785</ele>
        <time>2026-05-05T10:00:14.151Z</time>
      </trkpt>
      <trkpt lat="50.950350" lon="-0.055383">
        <ele>49.455448</ele>
        <time>2026-05-05T10:00:18.318Z</time>
      </trkpt>
      <trkpt lat="50.950576" lon="-0.055108">
        <ele>48.617663</ele>
        <time>2026-05-05T10:00:21.971Z</time>
      </trkpt>
      <trkpt lat="50.950631" lon="-0.054968">
        <ele>48.311863</ele>
        <time>2026-05-05T10:00:23.295Z</time>
      </trkpt>
      <trkpt lat="50.950772" lon="-0.054558">
        <ele>47.446099</ele>
        <time>2026-05-05T10:00:27.096Z</time>
      </trkpt>
      <trkpt lat="50.950831" lon="-0.054265">
        <ele>46.875975</ele>
        <time>2026-05-05T10:00:29.569Z</time>
      </trkpt>
      <trkpt lat="50.950936" lon="-0.053380">
        <ele>45.206850</ele>
        <time>2026-05-05T10:00:36.442Z</time>
      </trkpt>
      <trkpt lat="50.951042" lon="-0.053204">
        <ele>44.755560</ele>
        <time>2026-05-05T10:00:38.248Z</time>
      </trkpt>
      <trkpt lat="50.951100" lon="-0.053179">
        <ele>44.578744</ele>
        <time>2026-05-05T10:00:38.958Z</time>
      </trkpt>
      <trkpt lat="50.951523" lon="-0.053004">
        <ele>42.288641</ele>
        <time>2026-05-05T10:00:44.027Z</time>
      </trkpt>
      <trkpt lat="50.952336" lon="-0.052749">
        <ele>37.921609</ele>
        <time>2026-05-05T10:00:53.149Z</time>
      </trkpt>
      <trkpt lat="50.952398" lon="-0.052730">
        <ele>37.588860</ele>
        <time>2026-05-05T10:00:53.838Z</time>
      </trkpt>
      <trkpt lat="50.952825" lon="-0.052516">
        <ele>35.229251</ele>
        <time>2026-05-05T10:00:58.760Z</time>
      </trkpt>
      <trkpt lat="50.952997" lon="-0.052401">
        <ele>34.592527</ele>
        <time>2026-05-05T10:01:00.843Z</time>
      </trkpt>
      <trkpt lat="50.953766" lon="-0.051944">
        <ele>32.056333</ele>
        <time>2026-05-05T10:01:10.428Z</time>
      </trkpt>
      <trkpt lat="50.954063" lon="-0.051731">
        <ele>31.049718</ele>
        <time>2026-05-05T10:01:14.801Z</time>
      </trkpt>
      <trkpt lat="50.954830" lon="-0.051032">
        <ele>29.271283</ele>
        <time>2026-05-05T10:01:27.963Z</time>
      </trkpt>
      <trkpt lat="50.957604" lon="-0.048551">
        <ele>27.556235</ele>
        <time>2026-05-05T10:02:18.262Z</time>
      </trkpt>
      <trkpt lat="50.957831" lon="-0.048411">
        <ele>27.580112</ele>
        <time>2026-05-05T10:02:22.551Z</time>
      </trkpt>
      <trkpt lat="50.959742" lon="-0.047609">
        <ele>28.258497</ele>
        <time>2026-05-05T10:03:00.064Z</time>
      </trkpt>
      <trkpt lat="50.959997" lon="-0.047475">
        <ele>28.554314</ele>
        <time>2026-05-05T10:03:05.485Z</time>
      </trkpt>
      <trkpt lat="50.960241" lon="-0.047290">
        <ele>28.852102</ele>
        <time>2026-05-05T10:03:11.495Z</time>
      </trkpt>
      <trkpt lat="50.960334" lon="-0.047241">
        <ele>28.960016</ele>
        <time>2026-05-05T10:03:13.836Z</time>
      </trkpt>
      <trkpt lat="50.960703" lon="-0.047081">
        <ele>29.381281</ele>
        <time>2026-05-05T10:03:23.247Z</time>
      </trkpt>
      <trkpt lat="50.960914" lon="-0.047081">
        <ele>29.613657</ele>
        <time>2026-05-05T10:03:28.768Z</time>
      </trkpt>
      <trkpt lat="50.961473" lon="-0.047309">
        <ele>30.962837</ele>
        <time>2026-05-05T10:03:45.167Z</time>
      </trkpt>
      <trkpt lat="50.961858" lon="-0.047421">
        <ele>32.076806</ele>
        <time>2026-05-05T10:03:57.167Z</time>
      </trkpt>
      <trkpt lat="50.962296" lon="-0.047469">
        <ele>33.326340</ele>
        <time>2026-05-05T10:04:11.249Z</time>
      </trkpt>
      <trkpt lat="50.962621" lon="-0.047431">
        <ele>34.253810</ele>
        <time>2026-05-05T10:04:22.001Z</time>
      </trkpt>
      <trkpt lat="50.962926" lon="-0.047339">
        <ele>35.206916</ele>
        <time>2026-05-05T10:04:32.678Z</time>
      </trkpt>
      <trkpt lat="50.963010" lon="-0.047282">
        <ele>35.549268</ele>
        <time>2026-05-05T10:04:35.909Z</time>
      </trkpt>
      <trkpt lat="50.963384" lon="-0.046883">
        <ele>37.237924</ele>
        <time>2026-05-05T10:04:52.692Z</time>
      </trkpt>
      <trkpt lat="50.963498" lon="-0.046775">
        <ele>37.735433</ele>
        <time>2026-05-05T10:04:57.909Z</time>
      </trkpt>
      <trkpt lat="50.963732" lon="-0.046669">
        <ele>38.647387</ele>
        <time>2026-05-05T10:05:07.670Z</time>
      </trkpt>
      <trkpt lat="50.964878" lon="-0.046370">
        <ele>41.821283</ele>
        <time>2026-05-05T10:05:48.779Z</time>
      </trkpt>
      <trkpt lat="50.965126" lon="-0.046321">
        <ele>41.934850</ele>
        <time>2026-05-05T10:05:54.900Z</time>
      </trkpt>
      <trkpt lat="50.965190" lon="-0.046288">
        <ele>41.965428</ele>
        <time>2026-05-05T10:05:56.422Z</time>
      </trkpt>
      <trkpt lat="50.965547" lon="-0.046096">
        <ele>42.136711</ele>
        <time>2026-05-05T10:06:03.508Z</time>
      </trkpt>
      <trkpt lat="50.965755" lon="-0.045935">
        <ele>42.241864</ele>
        <time>2026-05-05T10:06:06.997Z</time>
      </trkpt>
      <trkpt lat="50.965931" lon="-0.045770">
        <ele>42.334743</ele>
        <time>2026-05-05T10:06:09.828Z</time>
      </trkpt>
      <trkpt lat="50.966180" lon="-0.045473">
        <ele>42.475394</ele>
        <time>2026-05-05T10:06:13.929Z</time>
      </trkpt>
      <trkpt lat="50.966267" lon="-0.045340">
        <ele>42.344313</ele>
        <time>2026-05-05T10:06:15.494Z</time>
      </trkpt>
      <trkpt lat="50.966402" lon="-0.045174">
        <ele>42.158985</ele>
        <time>2026-05-05T10:06:17.715Z</time>
      </trkpt>
      <trkpt lat="50.966527" lon="-0.044528">
        <ele>41.697033</ele>
        <time>2026-05-05T10:06:23.398Z</time>
      </trkpt>
      <trkpt lat="50.966683" lon="-0.044118">
        <ele>41.369597</ele>
        <time>2026-05-05T10:06:27.631Z</time>
      </trkpt>
      <trkpt lat="50.966823" lon="-0.043911">
        <ele>41.161963</ele>
        <time>2026-05-05T10:06:30.368Z</time>
      </trkpt>
      <trkpt lat="50.967194" lon="-0.043505">
        <ele>40.672911</ele>
        <time>2026-05-05T10:06:37.290Z</time>
      </trkpt>
      <trkpt lat="50.967387" lon="-0.043241">
        <ele>40.707819</ele>
        <time>2026-05-05T10:06:41.726Z</time>
      </trkpt>
      <trkpt lat="50.967968" lon="-0.042124">
        <ele>42.139200</ele>
        <time>2026-05-05T10:07:03.179Z</time>
      </trkpt>
      <trkpt lat="50.968142" lon="-0.041835">
        <ele>42.534235</ele>
        <time>2026-05-05T10:07:10.336Z</time>
      </trkpt>
      <trkpt lat="50.968274" lon="-0.041628">
        <ele>42.825294</ele>
        <time>2026-05-05T10:07:15.783Z</time>
      </trkpt>
      <trkpt lat="50.968929" lon="-0.040775">
        <ele>44.878504</ele>
        <time>2026-05-05T10:07:42.996Z</time>
      </trkpt>
      <trkpt lat="50.969390" lon="-0.039913">
        <ele>46.996435</ele>
        <time>2026-05-05T10:08:06.602Z</time>
      </trkpt>
      <trkpt lat="50.969635" lon="-0.039461">
        <ele>48.113310</ele>
        <time>2026-05-05T10:08:18.524Z</time>
      </trkpt>
      <trkpt lat="50.969649" lon="-0.039437">
        <ele>48.174577</ele>
        <time>2026-05-05T10:08:19.174Z</time>
      </trkpt>
      <trkpt lat="50.969914" lon="-0.038995">
        <ele>49.297120</ele>
        <time>2026-05-05T10:08:31.071Z</time>
      </trkpt>
      <trkpt lat="50.970442" lon="-0.037768">
        <ele>51.989204</ele>
        <time>2026-05-05T10:09:00.177Z</time>
      </trkpt>
      <trkpt lat="50.970541" lon="-0.037534">
        <ele>52.499872</ele>
        <time>2026-05-05T10:09:05.752Z</time>
      </trkpt>
      <trkpt lat="50.970655" lon="-0.037268">
        <ele>53.082729</ele>
        <time>2026-05-05T10:09:12.206Z</time>
      </trkpt>
      <trkpt lat="50.970776" lon="-0.036972">
        <ele>53.721993</ele>
        <time>2026-05-05T10:09:19.407Z</time>
      </trkpt>
      <trkpt lat="50.970801" lon="-0.036910">
        <ele>53.855356</ele>
        <time>2026-05-05T10:09:20.922Z</time>
      </trkpt>
      <trkpt lat="50.971115" lon="-0.036159">
        <ele>55.560146</ele>
        <time>2026-05-05T10:09:39.852Z</time>
      </trkpt>
      <trkpt lat="50.971232" lon="-0.035943">
        <ele>56.099144</ele>
        <time>2026-05-05T10:09:46.031Z</time>
      </trkpt>
      <trkpt lat="50.971358" lon="-0.035751">
        <ele>56.623750</ele>
        <time>2026-05-05T10:09:52.045Z</time>
      </trkpt>
      <trkpt lat="50.971632" lon="-0.035433">
        <ele>57.643296</ele>
        <time>2026-05-05T10:10:03.656Z</time>
      </trkpt>
      <trkpt lat="50.972123" lon="-0.034937">
        <ele>59.310567</ele>
        <time>2026-05-05T10:10:21.875Z</time>
      </trkpt>
      <trkpt lat="50.972435" lon="-0.034710">
        <ele>59.642602</ele>
        <time>2026-05-05T10:10:31.080Z</time>
      </trkpt>
      <trkpt lat="50.972554" lon="-0.033844">
        <ele>60.182614</ele>
        <time>2026-05-05T10:10:44.721Z</time>
      </trkpt>
      <trkpt lat="50.972626" lon="-0.033324">
        <ele>60.506983</ele>
        <time>2026-05-05T10:10:51.199Z</time>
      </trkpt>
      <trkpt lat="50.972772" lon="-0.032359">
        <ele>60.983102</ele>
        <time>2026-05-05T10:11:01.440Z</time>
      </trkpt>
      <trkpt lat="50.972922" lon="-0.031322">
        <ele>60.792348</ele>
        <time>2026-05-05T10:11:12.862Z</time>
      </trkpt>
      <trkpt lat="50.973074" lon="-0.030294">
        <ele>60.603037</ele>
        <time>2026-05-05T10:11:24.082Z</time>
      </trkpt>
      <trkpt lat="50.973115" lon="-0.030035">
        <ele>60.555160</ele>
        <time>2026-05-05T10:11:26.864Z</time>
      </trkpt>
      <trkpt lat="50.973253" lon="-0.029039">
        <ele>60.184658</ele>
        <time>2026-05-05T10:11:37.306Z</time>
      </trkpt>
      <trkpt lat="50.973310" lon="-0.028459">
        <ele>59.925004</ele>
        <time>2026-05-05T10:11:42.715Z</time>
      </trkpt>
      <trkpt lat="50.973280" lon="-0.026816">
        <ele>59.264959</ele>
        <time>2026-05-05T10:11:57.849Z</time>
      </trkpt>
      <trkpt lat="50.973242" lon="-0.026201">
        <ele>59.463587</ele>
        <time>2026-05-05T10:12:04.627Z</time>
      </trkpt>
      <trkpt lat="50.973158" lon="-0.025236">
        <ele>59.776716</ele>
        <time>2026-05-05T10:12:16.973Z</time>
      </trkpt>
      <trkpt lat="50.973081" lon="-0.024800">
        <ele>59.922267</ele>
        <time>2026-05-05T10:12:23.539Z</time>
      </trkpt>
      <trkpt lat="50.972991" lon="-0.024296">
        <ele>60.090656</ele>
        <time>2026-05-05T10:12:31.876Z</time>
      </trkpt>
      <trkpt lat="50.972939" lon="-0.024071">
        <ele>60.166140</ele>
        <time>2026-05-05T10:12:35.617Z</time>
      </trkpt>
      <trkpt lat="50.972915" lon="-0.023968">
        <ele>60.197152</ele>
        <time>2026-05-05T10:12:37.276Z</time>
      </trkpt>
      <trkpt lat="50.972755" lon="-0.023303">
        <ele>60.398169</ele>
        <time>2026-05-05T10:12:47.428Z</time>
      </trkpt>
      <trkpt lat="50.972677" lon="-0.022975">
        <ele>60.497172</ele>
        <time>2026-05-05T10:13:17.695Z</time>
      </trkpt>
      <trkpt lat="50.972542" lon="-0.022391">
        <ele>60.672838</ele>
        <time>2026-05-05T10:13:25.746Z</time>
      </trkpt>
      <trkpt lat="50.972483" lon="-0.022122">
        <ele>60.753272</ele>
        <time>2026-05-05T10:13:29.201Z</time>
      </trkpt>
      <trkpt lat="50.972359" lon="-0.021345">
        <ele>60.901713</ele>
        <time>2026-05-05T10:13:37.626Z</time>
      </trkpt>
      <trkpt lat="50.972335" lon="-0.021046">
        <ele>60.621506</ele>
        <time>2026-05-05T10:13:40.463Z</time>
      </trkpt>
      <trkpt lat="50.972329" lon="-0.020775">
        <ele>60.369421</ele>
        <time>2026-05-05T10:13:42.981Z</time>
      </trkpt>
      <trkpt lat="50.972307" lon="-0.020215">
        <ele>59.847817</ele>
        <time>2026-05-05T10:13:48.117Z</time>
      </trkpt>
      <trkpt lat="50.972283" lon="-0.019605">
        <ele>59.279638</ele>
        <time>2026-05-05T10:13:53.517Z</time>
      </trkpt>
      <trkpt lat="50.972281" lon="-0.019456">
        <ele>59.141092</ele>
        <time>2026-05-05T10:13:54.767Z</time>
      </trkpt>
      <trkpt lat="50.972214" lon="-0.019142">
        <ele>58.832885</ele>
        <time>2026-05-05T10:13:57.491Z</time>
      </trkpt>
      <trkpt lat="50.972353" lon="-0.018149">
        <ele>57.601316</ele>
        <time>2026-05-05T10:14:05.580Z</time>
      </trkpt>
      <trkpt lat="50.972763" lon="-0.018129">
        <ele>56.582392</ele>
        <time>2026-05-05T10:14:10.655Z</time>
      </trkpt>
      <trkpt lat="50.973137" lon="-0.018118">
        <ele>55.653213</ele>
        <time>2026-05-05T10:14:15.251Z</time>
      </trkpt>
      <trkpt lat="50.973557" lon="-0.018041">
        <ele>54.603000</ele>
        <time>2026-05-05T10:14:20.447Z</time>
      </trkpt>
      <trkpt lat="50.973796" lon="-0.017914">
        <ele>53.976970</ele>
        <time>2026-05-05T10:14:23.696Z</time>
      </trkpt>
      <trkpt lat="50.974001" lon="-0.017802">
        <ele>53.932023</ele>
        <time>2026-05-05T10:14:26.708Z</time>
      </trkpt>
      <trkpt lat="50.974499" lon="-0.017445">
        <ele>54.250339</ele>
        <time>2026-05-05T10:14:35.621Z</time>
      </trkpt>
      <trkpt lat="50.975295" lon="-0.016885">
        <ele>54.757541</ele>
        <time>2026-05-05T10:14:56.428Z</time>
      </trkpt>
      <trkpt lat="50.975674" lon="-0.016605">
        <ele>55.611704</ele>
        <time>2026-05-05T10:15:08.772Z</time>
      </trkpt>
      <trkpt lat="50.976266" lon="-0.016171">
        <ele>58.009661</ele>
        <time>2026-05-05T10:15:30.482Z</time>
      </trkpt>
      <trkpt lat="50.976302" lon="-0.016300">
        <ele>58.336403</ele>
        <time>2026-05-05T10:15:33.487Z</time>
      </trkpt>
      <trkpt lat="50.977275" lon="-0.017452">
        <ele>63.078595</ele>
        <time>2026-05-05T10:16:21.665Z</time>
      </trkpt>
      <trkpt lat="50.978371" lon="-0.018083">
        <ele>68.286752</ele>
        <time>2026-05-05T10:17:10.721Z</time>
      </trkpt>
      <trkpt lat="50.978507" lon="-0.018139">
        <ele>68.914420</ele>
        <time>2026-05-05T10:17:16.002Z</time>
      </trkpt>
      <trkpt lat="50.978712" lon="-0.018224">
        <ele>69.533066</ele>
        <time>2026-05-05T10:17:23.415Z</time>
      </trkpt>
      <trkpt lat="50.979201" lon="-0.018410">
        <ele>69.509691</ele>
        <time>2026-05-05T10:17:38.616Z</time>
      </trkpt>
      <trkpt lat="50.980408" lon="-0.018814">
        <ele>69.393585</ele>
        <time>2026-05-05T10:17:56.497Z</time>
      </trkpt>
      <trkpt lat="50.980623" lon="-0.018848">
        <ele>68.154524</ele>
        <time>2026-05-05T10:17:59.014Z</time>
      </trkpt>
      <trkpt lat="50.980821" lon="-0.018876">
        <ele>67.014558</ele>
        <time>2026-05-05T10:18:01.283Z</time>
      </trkpt>
      <trkpt lat="50.981277" lon="-0.018921">
        <ele>64.394483</ele>
        <time>2026-05-05T10:18:06.380Z</time>
      </trkpt>
      <trkpt lat="50.981310" lon="-0.018923">
        <ele>64.205100</ele>
        <time>2026-05-05T10:18:06.737Z</time>
      </trkpt>
      <trkpt lat="50.981434" lon="-0.018922">
        <ele>63.493986</ele>
        <time>2026-05-05T10:18:08.094Z</time>
      </trkpt>
      <trkpt lat="50.981850" lon="-0.018928">
        <ele>61.108244</ele>
        <time>2026-05-05T10:18:12.606Z</time>
      </trkpt>
      <trkpt lat="50.982774" lon="-0.018577">
        <ele>53.950889</ele>
        <time>2026-05-05T10:18:22.650Z</time>
      </trkpt>
      <trkpt lat="50.983088" lon="-0.018676">
        <ele>51.212996</ele>
        <time>2026-05-05T10:18:25.985Z</time>
      </trkpt>
      <trkpt lat="50.984217" lon="-0.019532">
        <ele>41.317813</ele>
        <time>2026-05-05T10:18:39.051Z</time>
      </trkpt>
      <trkpt lat="50.985196" lon="-0.019926">
        <ele>34.823231</ele>
        <time>2026-05-05T10:18:50.070Z</time>
      </trkpt>
      <trkpt lat="50.985258" lon="-0.019956">
        <ele>34.406440</ele>
        <time>2026-05-05T10:18:50.802Z</time>
      </trkpt>
      <trkpt lat="50.985860" lon="-0.020241">
        <ele>31.548342</ele>
        <time>2026-05-05T10:18:58.092Z</time>
      </trkpt>
      <trkpt lat="50.986004" lon="-0.020184">
        <ele>31.212944</ele>
        <time>2026-05-05T10:18:59.933Z</time>
      </trkpt>
      <trkpt lat="50.986516" lon="-0.019868">
        <ele>29.971535</ele>
        <time>2026-05-05T10:19:07.213Z</time>
      </trkpt>
      <trkpt lat="50.987138" lon="-0.019521">
        <ele>28.481622</ele>
        <time>2026-05-05T10:19:16.235Z</time>
      </trkpt>
      <trkpt lat="50.987404" lon="-0.019416">
        <ele>28.067030</ele>
        <time>2026-05-05T10:19:20.227Z</time>
      </trkpt>
      <trkpt lat="50.987891" lon="-0.019307">
        <ele>27.826676</ele>
        <time>2026-05-05T10:19:28.137Z</time>
      </trkpt>
      <trkpt lat="50.988286" lon="-0.019325">
        <ele>27.633556</ele>
        <time>2026-05-05T10:19:34.163Z</time>
      </trkpt>
      <trkpt lat="50.988685" lon="-0.019200">
        <ele>27.434805</ele>
        <time>2026-05-05T10:19:40.501Z</time>
      </trkpt>
      <trkpt lat="50.989034" lon="-0.018992">
        <ele>27.252637</ele>
        <time>2026-05-05T10:19:46.959Z</time>
      </trkpt>
      <trkpt lat="50.989207" lon="-0.018964">
        <ele>27.472131</ele>
        <time>2026-05-05T10:19:50.290Z</time>
      </trkpt>
      <trkpt lat="50.989469" lon="-0.019008">
        <ele>27.853299</ele>
        <time>2026-05-05T10:19:55.756Z</time>
      </trkpt>
      <trkpt lat="50.990322" lon="-0.018941">
        <ele>29.088907</ele>
        <time>2026-05-05T10:20:16.406Z</time>
      </trkpt>
      <trkpt lat="50.991859" lon="-0.018959">
        <ele>32.334517</ele>
        <time>2026-05-05T10:21:03.712Z</time>
      </trkpt>
      <trkpt lat="50.992292" lon="-0.018861">
        <ele>33.408397</ele>
        <time>2026-05-05T10:21:16.861Z</time>
      </trkpt>
      <trkpt lat="50.992881" lon="-0.018795">
        <ele>34.628619</ele>
        <time>2026-05-05T10:21:33.207Z</time>
      </trkpt>
      <trkpt lat="50.993370" lon="-0.018711">
        <ele>35.370507</ele>
        <time>2026-05-05T10:21:45.799Z</time>
      </trkpt>
      <trkpt lat="50.993510" lon="-0.018804">
        <ele>35.599392</ele>
        <time>2026-05-05T10:21:49.320Z</time>
      </trkpt>
      <trkpt lat="50.993674" lon="-0.019116">
        <ele>35.985307</ele>
        <time>2026-05-05T10:21:55.142Z</time>
      </trkpt>
      <trkpt lat="50.994851" lon="-0.022313">
        <ele>39.400879</ele>
        <time>2026-05-05T10:22:51.678Z</time>
      </trkpt>
      <trkpt lat="50.994918" lon="-0.022447">
        <ele>39.556874</ele>
        <time>2026-05-05T10:22:54.444Z</time>
      </trkpt>
      <trkpt lat="50.995271" lon="-0.023511">
        <ele>41.173362</ele>
        <time>2026-05-05T10:23:15.574Z</time>
      </trkpt>
      <trkpt lat="50.995778" lon="-0.025227">
        <ele>43.702415</ele>
        <time>2026-05-05T10:23:50.910Z</time>
      </trkpt>
      <trkpt lat="50.996298" lon="-0.027144">
        <ele>46.167628</ele>
        <time>2026-05-05T10:24:24.551Z</time>
      </trkpt>
      <trkpt lat="50.996538" lon="-0.027611">
        <ele>46.849771</ele>
        <time>2026-05-05T10:24:34.584Z</time>
      </trkpt>
      <trkpt lat="50.996753" lon="-0.027741">
        <ele>47.048476</ele>
        <time>2026-05-05T10:24:41.191Z</time>
      </trkpt>
      <trkpt lat="50.997744" lon="-0.027284">
        <ele>47.939801</ele>
        <time>2026-05-05T10:25:09.988Z</time>
      </trkpt>
      <trkpt lat="50.998186" lon="-0.027220">
        <ele>48.323172</ele>
        <time>2026-05-05T10:25:17.579Z</time>
      </trkpt>
      <trkpt lat="50.998390" lon="-0.027225">
        <ele>47.730687</ele>
        <time>2026-05-05T10:25:20.397Z</time>
      </trkpt>
      <trkpt lat="50.999965" lon="-0.027369">
        <ele>40.470582</ele>
        <time>2026-05-05T10:25:38.185Z</time>
      </trkpt>
      <trkpt lat="51.000868" lon="-0.027473">
        <ele>34.856556</ele>
        <time>2026-05-05T10:25:47.947Z</time>
      </trkpt>
      <trkpt lat="51.001156" lon="-0.027531">
        <ele>33.011203</ele>
        <time>2026-05-05T10:25:51.090Z</time>
      </trkpt>
      <trkpt lat="51.001379" lon="-0.027556">
        <ele>31.590151</ele>
        <time>2026-05-05T10:25:53.505Z</time>
      </trkpt>
      <trkpt lat="51.001405" lon="-0.027560">
        <ele>31.424106</ele>
        <time>2026-05-05T10:25:53.787Z</time>
      </trkpt>
      <trkpt lat="51.001422" lon="-0.027562">
        <ele>31.315748</ele>
        <time>2026-05-05T10:25:53.971Z</time>
      </trkpt>
      <trkpt lat="51.001912" lon="-0.027648">
        <ele>28.416339</ele>
        <time>2026-05-05T10:25:59.394Z</time>
      </trkpt>
      <trkpt lat="51.001991" lon="-0.027664">
        <ele>28.154522</ele>
        <time>2026-05-05T10:26:00.291Z</time>
      </trkpt>
      <trkpt lat="51.002143" lon="-0.027685">
        <ele>27.652931</ele>
        <time>2026-05-05T10:26:01.999Z</time>
      </trkpt>
      <trkpt lat="51.002245" lon="-0.027659">
        <ele>27.313315</ele>
        <time>2026-05-05T10:26:03.173Z</time>
      </trkpt>
      <trkpt lat="51.002373" lon="-0.027617">
        <ele>26.883633</ele>
        <time>2026-05-05T10:26:04.675Z</time>
      </trkpt>
      <trkpt lat="51.002426" lon="-0.027588">
        <ele>26.699353</ele>
        <time>2026-05-05T10:26:05.327Z</time>
      </trkpt>
      <trkpt lat="51.002921" lon="-0.027287">
        <ele>24.956947</ele>
        <time>2026-05-05T10:26:11.666Z</time>
      </trkpt>
      <trkpt lat="51.003031" lon="-0.027216">
        <ele>24.566626</ele>
        <time>2026-05-05T10:26:13.154Z</time>
      </trkpt>
      <trkpt lat="51.003211" lon="-0.027126">
        <ele>23.946268</ele>
        <time>2026-05-05T10:26:15.553Z</time>
      </trkpt>
      <trkpt lat="51.004118" lon="-0.026846">
        <ele>23.402588</ele>
        <time>2026-05-05T10:26:30.127Z</time>
      </trkpt>
      <trkpt lat="51.004890" lon="-0.026691">
        <ele>24.301406</ele>
        <time>2026-05-05T10:26:50.439Z</time>
      </trkpt>
      <trkpt lat="51.005214" lon="-0.026771">
        <ele>24.680146</ele>
        <time>2026-05-05T10:27:00.311Z</time>
      </trkpt>
      <trkpt lat="51.005357" lon="-0.026887">
        <ele>24.909328</ele>
        <time>2026-05-05T10:27:05.298Z</time>
      </trkpt>
      <trkpt lat="51.005636" lon="-0.027239">
        <ele>25.852832</ele>
        <time>2026-05-05T10:27:16.570Z</time>
      </trkpt>
      <trkpt lat="51.005798" lon="-0.027521">
        <ele>26.489212</ele>
        <time>2026-05-05T10:27:24.138Z</time>
      </trkpt>
      <trkpt lat="51.006200" lon="-0.028460">
        <ele>28.381993</ele>
        <time>2026-05-05T10:27:46.071Z</time>
      </trkpt>
      <trkpt lat="51.006602" lon="-0.028889">
        <ele>29.679360</ele>
        <time>2026-05-05T10:28:00.290Z</time>
      </trkpt>
      <trkpt lat="51.006960" lon="-0.029125">
        <ele>30.927438</ele>
        <time>2026-05-05T10:28:11.921Z</time>
      </trkpt>
      <trkpt lat="51.007067" lon="-0.029195">
        <ele>31.300052</ele>
        <time>2026-05-05T10:28:15.481Z</time>
      </trkpt>
      <trkpt lat="51.007455" lon="-0.029312">
        <ele>32.571786</ele>
        <time>2026-05-05T10:28:28.009Z</time>
      </trkpt>
      <trkpt lat="51.007834" lon="-0.029341">
        <ele>33.793660</ele>
        <time>2026-05-05T10:28:40.963Z</time>
      </trkpt>
      <trkpt lat="51.008771" lon="-0.029097">
        <ele>36.800810</ele>
        <time>2026-05-05T10:29:16.055Z</time>
      </trkpt>
      <trkpt lat="51.008899" lon="-0.029068">
        <ele>37.202821</ele>
        <time>2026-05-05T10:29:20.766Z</time>
      </trkpt>
      <trkpt lat="51.009511" lon="-0.029015">
        <ele>39.108521</ele>
        <time>2026-05-05T10:29:41.742Z</time>
      </trkpt>
      <trkpt lat="51.010160" lon="-0.028841">
        <ele>41.051329</ele>
        <time>2026-05-05T10:30:00.953Z</time>
      </trkpt>
      <trkpt lat="51.010339" lon="-0.028858">
        <ele>41.278471</ele>
        <time>2026-05-05T10:30:05.599Z</time>
      </trkpt>
      <trkpt lat="51.010682" lon="-0.028890">
        <ele>41.713694</ele>
        <time>2026-05-05T10:30:13.830Z</time>
      </trkpt>
      <trkpt lat="51.011721" lon="-0.029161">
        <ele>43.047388</ele>
        <time>2026-05-05T10:30:37.006Z</time>
      </trkpt>
      <trkpt lat="51.012630" lon="-0.029088">
        <ele>44.110272</ele>
        <time>2026-05-05T10:30:58.709Z</time>
      </trkpt>
      <trkpt lat="51.012765" lon="-0.029233">
        <ele>44.296935</ele>
        <time>2026-05-05T10:31:02.722Z</time>
      </trkpt>
      <trkpt lat="51.012853" lon="-0.029418">
        <ele>44.464101</ele>
        <time>2026-05-05T10:31:06.294Z</time>
      </trkpt>
      <trkpt lat="51.012938" lon="-0.029688">
        <ele>44.681714</ele>
        <time>2026-05-05T10:31:10.854Z</time>
      </trkpt>
      <trkpt lat="51.013074" lon="-0.030570">
        <ele>45.333795</ele>
        <time>2026-05-05T10:31:23.941Z</time>
      </trkpt>
      <trkpt lat="51.013406" lon="-0.031935">
        <ele>46.238242</ele>
        <time>2026-05-05T10:31:43.796Z</time>
      </trkpt>
      <trkpt lat="51.013426" lon="-0.031994">
        <ele>46.279661</ele>
        <time>2026-05-05T10:31:44.642Z</time>
      </trkpt>
      <trkpt lat="51.013534" lon="-0.032061">
        <ele>46.393547</ele>
        <time>2026-05-05T10:31:47.163Z</time>
      </trkpt>
      <trkpt lat="51.013731" lon="-0.032092">
        <ele>46.588011</ele>
        <time>2026-05-05T10:31:51.353Z</time>
      </trkpt>
      <trkpt lat="51.015097" lon="-0.031710">
        <ele>47.694489</ele>
        <time>2026-05-05T10:32:24.474Z</time>
      </trkpt>
      <trkpt lat="51.015231" lon="-0.031677">
        <ele>47.788253</ele>
        <time>2026-05-05T10:32:27.585Z</time>
      </trkpt>
      <trkpt lat="51.015675" lon="-0.031652">
        <ele>48.095464</ele>
        <time>2026-05-05T10:32:36.634Z</time>
      </trkpt>
      <trkpt lat="51.016219" lon="-0.031801">
        <ele>48.110843</ele>
        <time>2026-05-05T10:32:46.044Z</time>
      </trkpt>
      <trkpt lat="51.016447" lon="-0.031902">
        <ele>47.868219</ele>
        <time>2026-05-05T10:32:49.635Z</time>
      </trkpt>
      <trkpt lat="51.016679" lon="-0.032085">
        <ele>47.602729</ele>
        <time>2026-05-05T10:32:53.391Z</time>
      </trkpt>
      <trkpt lat="51.017191" lon="-0.032770">
        <ele>46.916734</ele>
        <time>2026-05-05T10:33:02.795Z</time>
      </trkpt>
      <trkpt lat="51.017905" lon="-0.033692">
        <ele>45.357008</ele>
        <time>2026-05-05T10:33:15.657Z</time>
      </trkpt>
      <trkpt lat="51.018275" lon="-0.034106">
        <ele>44.334570</ele>
        <time>2026-05-05T10:33:21.677Z</time>
      </trkpt>
      <trkpt lat="51.018498" lon="-0.034265">
        <ele>43.782292</ele>
        <time>2026-05-05T10:33:24.806Z</time>
      </trkpt>
      <trkpt lat="51.018724" lon="-0.034370">
        <ele>43.250237</ele>
        <time>2026-05-05T10:33:27.742Z</time>
      </trkpt>
      <trkpt lat="51.019205" lon="-0.034485">
        <ele>42.255724</ele>
        <time>2026-05-05T10:33:33.575Z</time>
      </trkpt>
      <trkpt lat="51.019474" lon="-0.034481">
        <ele>41.883067</ele>
        <time>2026-05-05T10:33:36.805Z</time>
      </trkpt>
      <trkpt lat="51.019700" lon="-0.034424">
        <ele>41.566078</ele>
        <time>2026-05-05T10:33:39.590Z</time>
      </trkpt>
      <trkpt lat="51.020041" lon="-0.034263">
        <ele>41.073303</ele>
        <time>2026-05-05T10:33:44.095Z</time>
      </trkpt>
      <trkpt lat="51.020095" lon="-0.034238">
        <ele>40.995390</ele>
        <time>2026-05-05T10:33:44.847Z</time>
      </trkpt>
      <trkpt lat="51.020616" lon="-0.033980">
        <ele>40.239453</ele>
        <time>2026-05-05T10:33:52.921Z</time>
      </trkpt>
      <trkpt lat="51.020910" lon="-0.033932">
        <ele>40.302847</ele>
        <time>2026-05-05T10:33:59.885Z</time>
      </trkpt>
      <trkpt lat="51.021333" lon="-0.033798">
        <ele>42.535830</ele>
        <time>2026-05-05T10:34:14.928Z</time>
      </trkpt>
      <trkpt lat="51.021618" lon="-0.033653">
        <ele>44.085030</ele>
        <time>2026-05-05T10:34:27.604Z</time>
      </trkpt>
      <trkpt lat="51.022107" lon="-0.033652">
        <ele>46.616650</ele>
        <time>2026-05-05T10:34:51.566Z</time>
      </trkpt>
      <trkpt lat="51.022511" lon="-0.033799">
        <ele>48.762294</ele>
        <time>2026-05-05T10:35:13.648Z</time>
      </trkpt>
      <trkpt lat="51.022989" lon="-0.033941">
        <ele>51.945268</ele>
        <time>2026-05-05T10:35:40.110Z</time>
      </trkpt>
      <trkpt lat="51.023452" lon="-0.033975">
        <ele>55.128318</ele>
        <time>2026-05-05T10:36:04.062Z</time>
      </trkpt>
      <trkpt lat="51.023843" lon="-0.033939">
        <ele>57.818016</ele>
        <time>2026-05-05T10:36:23.801Z</time>
      </trkpt>
      <trkpt lat="51.024692" lon="-0.033815">
        <ele>63.499085</ele>
        <time>2026-05-05T10:37:04.961Z</time>
      </trkpt>
      <trkpt lat="51.025117" lon="-0.033624">
        <ele>66.278317</ele>
        <time>2026-05-05T10:37:26.508Z</time>
      </trkpt>
      <trkpt lat="51.025716" lon="-0.033259">
        <ele>70.315066</ele>
        <time>2026-05-05T10:37:57.949Z</time>
      </trkpt>
      <trkpt lat="51.026219" lon="-0.033001">
        <ele>73.348728</ele>
        <time>2026-05-05T10:38:23.463Z</time>
      </trkpt>
      <trkpt lat="51.026680" lon="-0.032812">
        <ele>75.142937</ele>
        <time>2026-05-05T10:38:43.902Z</time>
      </trkpt>
      <trkpt lat="51.027140" lon="-0.032627">
        <ele>76.931147</ele>
        <time>2026-05-05T10:39:00.622Z</time>
      </trkpt>
      <trkpt lat="51.027182" lon="-0.032609">
        <ele>77.095083</ele>
        <time>2026-05-05T10:39:01.932Z</time>
      </trkpt>
      <trkpt lat="51.027625" lon="-0.032444">
        <ele>78.809822</ele>
        <time>2026-05-05T10:39:14.139Z</time>
      </trkpt>
      <trkpt lat="51.028058" lon="-0.032288">
        <ele>80.366929</ele>
        <time>2026-05-05T10:39:26.859Z</time>
      </trkpt>
      <trkpt lat="51.028535" lon="-0.032208">
        <ele>81.909597</ele>
        <time>2026-05-05T10:39:42.063Z</time>
      </trkpt>
      <trkpt lat="51.028825" lon="-0.032208">
        <ele>82.842313</ele>
        <time>2026-05-05T10:39:51.893Z</time>
      </trkpt>
      <trkpt lat="51.029222" lon="-0.032165">
        <ele>84.122128</ele>
        <time>2026-05-05T10:40:06.509Z</time>
      </trkpt>
      <trkpt lat="51.029500" lon="-0.032094">
        <ele>85.027709</ele>
        <time>2026-05-05T10:40:17.604Z</time>
      </trkpt>
      <trkpt lat="51.030454" lon="-0.031717">
        <ele>86.775204</ele>
        <time>2026-05-05T10:40:49.815Z</time>
      </trkpt>
      <trkpt lat="51.030677" lon="-0.031646">
        <ele>87.125462</ele>
        <time>2026-05-05T10:40:54.631Z</time>
      </trkpt>
      <trkpt lat="51.030853" lon="-0.031590">
        <ele>87.401893</ele>
        <time>2026-05-05T10:40:58.127Z</time>
      </trkpt>
      <trkpt lat="51.030961" lon="-0.031555">
        <ele>87.571643</ele>
        <time>2026-05-05T10:41:00.130Z</time>
      </trkpt>
      <trkpt lat="51.031046" lon="-0.031535">
        <ele>87.703977</ele>
        <time>2026-05-05T10:41:01.631Z</time>
      </trkpt>
      <trkpt lat="51.031147" lon="-0.031496">
        <ele>87.864048</ele>
        <time>2026-05-05T10:41:03.349Z</time>
      </trkpt>
      <trkpt lat="51.031380" lon="-0.031439">
        <ele>88.227112</ele>
        <time>2026-05-05T10:41:07.039Z</time>
      </trkpt>
      <trkpt lat="51.031390" lon="-0.031436">
        <ele>88.242785</ele>
        <time>2026-05-05T10:41:07.191Z</time>
      </trkpt>
      <trkpt lat="51.031429" lon="-0.031428">
        <ele>88.255944</ele>
        <time>2026-05-05T10:41:07.796Z</time>
      </trkpt>
      <trkpt lat="51.031750" lon="-0.031388">
        <ele>88.342463</ele>
        <time>2026-05-05T10:41:12.610Z</time>
      </trkpt>
      <trkpt lat="51.031814" lon="-0.031388">
        <ele>88.359660</ele>
        <time>2026-05-05T10:41:13.586Z</time>
      </trkpt>
      <trkpt lat="51.031914" lon="-0.031401">
        <ele>88.386620</ele>
        <time>2026-05-05T10:41:15.149Z</time>
      </trkpt>
      <trkpt lat="51.031934" lon="-0.031405">
        <ele>88.392037</ele>
        <time>2026-05-05T10:41:15.465Z</time>
      </trkpt>
      <trkpt lat="51.032388" lon="-0.031539">
        <ele>88.516113</ele>
        <time>2026-05-05T10:41:23.657Z</time>
      </trkpt>
      <trkpt lat="51.032551" lon="-0.031574">
        <ele>88.560310</ele>
        <time>2026-05-05T10:41:26.967Z</time>
      </trkpt>
      <trkpt lat="51.032942" lon="-0.031610">
        <ele>88.665550</ele>
        <time>2026-05-05T10:41:35.238Z</time>
      </trkpt>
      <trkpt lat="51.033020" lon="-0.031617">
        <ele>88.686542</ele>
        <time>2026-05-05T10:41:36.987Z</time>
      </trkpt>
      <trkpt lat="51.033161" lon="-0.031647">
        <ele>88.724767</ele>
        <time>2026-05-05T10:41:40.340Z</time>
      </trkpt>
      <trkpt lat="51.033260" lon="-0.031433">
        <ele>88.979597</ele>
        <time>2026-05-05T10:41:44.463Z</time>
      </trkpt>
      <trkpt lat="51.033517" lon="-0.031159">
        <ele>89.494483</ele>
        <time>2026-05-05T10:41:52.541Z</time>
      </trkpt>
      <trkpt lat="51.033652" lon="-0.031016">
        <ele>89.764407</ele>
        <time>2026-05-05T10:41:56.956Z</time>
      </trkpt>
      <trkpt lat="51.034043" lon="-0.030705">
        <ele>90.491903</ele>
        <time>2026-05-05T10:42:08.883Z</time>
      </trkpt>
      <trkpt lat="51.034477" lon="-0.030325">
        <ele>91.316337</ele>
        <time>2026-05-05T10:42:22.021Z</time>
      </trkpt>
      <trkpt lat="51.034705" lon="-0.030081">
        <ele>91.757668</ele>
        <time>2026-05-05T10:42:29.155Z</time>
      </trkpt>
      <trkpt lat="51.035038" lon="-0.029668">
        <ele>92.241826</ele>
        <time>2026-05-05T10:42:39.685Z</time>
      </trkpt>
      <trkpt lat="51.035518" lon="-0.029017">
        <ele>92.965092</ele>
        <time>2026-05-05T10:42:54.242Z</time>
      </trkpt>
      <trkpt lat="51.036158" lon="-0.028191">
        <ele>93.927104</ele>
        <time>2026-05-05T10:43:11.920Z</time>
      </trkpt>
      <trkpt lat="51.036228" lon="-0.028117">
        <ele>94.036525</ele>
        <time>2026-05-05T10:43:13.853Z</time>
      </trkpt>
      <trkpt lat="51.036349" lon="-0.028057">
        <ele>94.201519</ele>
        <time>2026-05-05T10:43:16.749Z</time>
      </trkpt>
      <trkpt lat="51.036373" lon="-0.028094">
        <ele>94.245033</ele>
        <time>2026-05-05T10:43:19.054Z</time>
      </trkpt>
      <trkpt lat="51.036349" lon="-0.028057">
        <ele>94.288547</ele>
        <time>2026-05-05T10:43:21.359Z</time>
      </trkpt>
      <trkpt lat="51.036534" lon="-0.027935">
        <ele>94.549260</ele>
        <time>2026-05-05T10:43:26.086Z</time>
      </trkpt>
      <trkpt lat="51.036652" lon="-0.027906">
        <ele>94.704692</ele>
        <time>2026-05-05T10:43:28.868Z</time>
      </trkpt>
      <trkpt lat="51.036651" lon="-0.027771">
        <ele>94.815208</ele>
        <time>2026-05-05T10:43:30.899Z</time>
      </trkpt>
      <trkpt lat="51.036687" lon="-0.027310">
        <ele>95.195474</ele>
        <time>2026-05-05T10:43:37.719Z</time>
      </trkpt>
      <trkpt lat="51.036674" lon="-0.026470">
        <ele>95.883291</ele>
        <time>2026-05-05T10:43:50.839Z</time>
      </trkpt>
      <trkpt lat="51.036659" lon="-0.026208">
        <ele>96.098647</ele>
        <time>2026-05-05T10:43:55.479Z</time>
      </trkpt>
      <trkpt lat="51.036654" lon="-0.026057">
        <ele>96.182886</ele>
        <time>2026-05-05T10:43:58.301Z</time>
      </trkpt>
      <trkpt lat="51.036642" lon="-0.025903">
        <ele>96.257953</ele>
        <time>2026-05-05T10:44:00.967Z</time>
      </trkpt>
      <trkpt lat="51.036614" lon="-0.025582">
        <ele>96.414724</ele>
        <time>2026-05-05T10:44:06.485Z</time>
      </trkpt>
      <trkpt lat="51.036608" lon="-0.025480">
        <ele>96.464281</ele>
        <time>2026-05-05T10:44:08.148Z</time>
      </trkpt>
      <trkpt lat="51.036507" lon="-0.024831">
        <ele>96.787707</ele>
        <time>2026-05-05T10:44:18.035Z</time>
      </trkpt>
      <trkpt lat="51.036455" lon="-0.024643">
        <ele>96.887062</ele>
        <time>2026-05-05T10:44:20.768Z</time>
      </trkpt>
      <trkpt lat="51.036385" lon="-0.024421">
        <ele>97.007199</ele>
        <time>2026-05-05T10:44:23.980Z</time>
      </trkpt>
      <trkpt lat="51.036247" lon="-0.024112">
        <ele>97.190542</ele>
        <time>2026-05-05T10:44:28.732Z</time>
      </trkpt>
      <trkpt lat="51.035989" lon="-0.023749">
        <ele>97.455551</ele>
        <time>2026-05-05T10:44:35.051Z</time>
      </trkpt>
      <trkpt lat="51.035859" lon="-0.023684">
        <ele>97.481532</ele>
        <time>2026-05-05T10:44:38.080Z</time>
      </trkpt>
      <trkpt lat="51.035784" lon="-0.023872">
        <ele>97.422510</ele>
        <time>2026-05-05T10:44:41.058Z</time>
      </trkpt>
      <trkpt lat="51.035467" lon="-0.024591">
        <ele>97.189717</ele>
        <time>2026-05-05T10:44:52.084Z</time>
      </trkpt>
      <trkpt lat="51.035196" lon="-0.025288">
        <ele>96.972471</ele>
        <time>2026-05-05T10:45:03.376Z</time>
      </trkpt>
      <trkpt lat="51.035082" lon="-0.025523">
        <ele>96.893787</ele>
        <time>2026-05-05T10:45:07.846Z</time>
      </trkpt>
      <trkpt lat="51.035108" lon="-0.025556">
        <ele>96.879763</ele>
        <time>2026-05-05T10:45:09.365Z</time>
      </trkpt>
      <trkpt lat="51.035082" lon="-0.025523">
        <ele>96.865739</ele>
        <time>2026-05-05T10:45:10.835Z</time>
      </trkpt>
      <trkpt lat="51.035196" lon="-0.025288">
        <ele>96.787055</ele>
        <time>2026-05-05T10:45:15.421Z</time>
      </trkpt>
      <trkpt lat="51.035467" lon="-0.024591">
        <ele>97.281106</ele>
        <time>2026-05-05T10:45:29.221Z</time>
      </trkpt>
      <trkpt lat="51.035784" lon="-0.023872">
        <ele>97.961292</ele>
        <time>2026-05-05T10:45:47.030Z</time>
      </trkpt>
      <trkpt lat="51.035859" lon="-0.023684">
        <ele>98.133749</ele>
        <time>2026-05-05T10:45:51.767Z</time>
      </trkpt>
      <trkpt lat="51.035949" lon="-0.023460">
        <ele>98.339651</ele>
        <time>2026-05-05T10:45:57.335Z</time>
      </trkpt>
      <trkpt lat="51.035965" lon="-0.023392">
        <ele>98.395890</ele>
        <time>2026-05-05T10:45:58.563Z</time>
      </trkpt>
      <trkpt lat="51.036085" lon="-0.022913">
        <ele>98.795281</ele>
        <time>2026-05-05T10:46:07.018Z</time>
      </trkpt>
      <trkpt lat="51.036154" lon="-0.022679">
        <ele>98.937472</ele>
        <time>2026-05-05T10:46:11.218Z</time>
      </trkpt>
      <trkpt lat="51.036291" lon="-0.022214">
        <ele>98.532342</ele>
        <time>2026-05-05T10:46:19.052Z</time>
      </trkpt>
      <trkpt lat="51.036639" lon="-0.021235">
        <ele>97.645105</ele>
        <time>2026-05-05T10:46:30.505Z</time>
      </trkpt>
      <trkpt lat="51.036483" lon="-0.020729">
        <ele>97.200503</ele>
        <time>2026-05-05T10:46:35.028Z</time>
      </trkpt>
      <trkpt lat="51.036268" lon="-0.020369">
        <ele>96.808802</ele>
        <time>2026-05-05T10:46:38.745Z</time>
      </trkpt>
      <trkpt lat="51.035833" lon="-0.020039">
        <ele>95.098327</ele>
        <time>2026-05-05T10:46:44.256Z</time>
      </trkpt>
      <trkpt lat="51.035632" lon="-0.019779">
        <ele>94.062842</ele>
        <time>2026-05-05T10:46:47.181Z</time>
      </trkpt>
      <trkpt lat="51.035517" lon="-0.019564">
        <ele>93.353491</ele>
        <time>2026-05-05T10:46:49.185Z</time>
      </trkpt>
      <trkpt lat="51.035479" lon="-0.019421">
        <ele>92.963341</ele>
        <time>2026-05-05T10:46:50.302Z</time>
      </trkpt>
      <trkpt lat="51.035445" lon="-0.018898">
        <ele>91.641961</ele>
        <time>2026-05-05T10:46:54.159Z</time>
      </trkpt>
      <trkpt lat="51.035450" lon="-0.018600">
        <ele>90.892776</ele>
        <time>2026-05-05T10:46:56.389Z</time>
      </trkpt>
      <trkpt lat="51.035580" lon="-0.017943">
        <ele>89.299485</ele>
        <time>2026-05-05T10:47:01.677Z</time>
      </trkpt>
      <trkpt lat="51.035708" lon="-0.017512">
        <ele>88.559598</ele>
        <time>2026-05-05T10:47:05.446Z</time>
      </trkpt>
      <trkpt lat="51.035783" lon="-0.017161">
        <ele>87.984157</ele>
        <time>2026-05-05T10:47:08.399Z</time>
      </trkpt>
      <trkpt lat="51.035802" lon="-0.016979">
        <ele>87.697779</ele>
        <time>2026-05-05T10:47:09.874Z</time>
      </trkpt>
      <trkpt lat="51.035794" lon="-0.016483">
        <ele>86.927602</ele>
        <time>2026-05-05T10:47:13.856Z</time>
      </trkpt>
      <trkpt lat="51.035713" lon="-0.016186">
        <ele>86.425087</ele>
        <time>2026-05-05T10:47:16.451Z</time>
      </trkpt>
      <trkpt lat="51.035310" lon="-0.015262">
        <ele>84.809084</ele>
        <time>2026-05-05T10:47:25.577Z</time>
      </trkpt>
      <trkpt lat="51.035184" lon="-0.014841">
        <ele>84.318290</ele>
        <time>2026-05-05T10:47:29.572Z</time>
      </trkpt>
      <trkpt lat="51.035125" lon="-0.014344">
        <ele>83.785885</ele>
        <time>2026-05-05T10:47:34.017Z</time>
      </trkpt>
      <trkpt lat="51.035128" lon="-0.013788">
        <ele>83.200592</ele>
        <time>2026-05-05T10:47:38.957Z</time>
      </trkpt>
      <trkpt lat="51.035177" lon="-0.013169">
        <ele>82.543862</ele>
        <time>2026-05-05T10:47:44.521Z</time>
      </trkpt>
      <trkpt lat="51.035162" lon="-0.012975">
        <ele>82.338112</ele>
        <time>2026-05-05T10:47:46.241Z</time>
      </trkpt>
      <trkpt lat="51.035124" lon="-0.012832">
        <ele>82.174695</ele>
        <time>2026-05-05T10:47:47.581Z</time>
      </trkpt>
      <trkpt lat="51.035083" lon="-0.012675">
        <ele>81.888748</ele>
        <time>2026-05-05T10:47:49.025Z</time>
      </trkpt>
      <trkpt lat="51.034889" lon="-0.012312">
        <ele>80.675568</ele>
        <time>2026-05-05T10:47:52.954Z</time>
      </trkpt>
      <trkpt lat="51.034494" lon="-0.011862">
        <ele>78.707793</ele>
        <time>2026-05-05T10:47:58.952Z</time>
      </trkpt>
      <trkpt lat="51.033802" lon="-0.010937">
        <ele>75.046824</ele>
        <time>2026-05-05T10:48:09.187Z</time>
      </trkpt>
      <trkpt lat="51.033681" lon="-0.010728">
        <ele>74.134183</ele>
        <time>2026-05-05T10:48:11.129Z</time>
      </trkpt>
      <trkpt lat="51.033345" lon="-0.010015">
        <ele>70.939661</ele>
        <time>2026-05-05T10:48:17.110Z</time>
      </trkpt>
      <trkpt lat="51.033253" lon="-0.009747">
        <ele>69.844923</ele>
        <time>2026-05-05T10:48:19.141Z</time>
      </trkpt>
      <trkpt lat="51.033257" lon="-0.009395">
        <ele>68.582645</ele>
        <time>2026-05-05T10:48:21.504Z</time>
      </trkpt>
      <trkpt lat="51.033591" lon="-0.008641">
        <ele>65.275887</ele>
        <time>2026-05-05T10:48:28.000Z</time>
      </trkpt>
      <trkpt lat="51.033626" lon="-0.008486">
        <ele>64.685409</ele>
        <time>2026-05-05T10:48:29.260Z</time>
      </trkpt>
      <trkpt lat="51.033648" lon="-0.008236">
        <ele>64.928134</ele>
        <time>2026-05-05T10:48:31.302Z</time>
      </trkpt>
      <trkpt lat="51.033630" lon="-0.008056">
        <ele>65.272024</ele>
        <time>2026-05-05T10:48:32.915Z</time>
      </trkpt>
      <trkpt lat="51.033336" lon="-0.007477">
        <ele>66.676142</ele>
        <time>2026-05-05T10:48:43.036Z</time>
      </trkpt>
      <trkpt lat="51.033293" lon="-0.007268">
        <ele>67.091052</ele>
        <time>2026-05-05T10:48:47.517Z</time>
      </trkpt>
      <trkpt lat="51.033305" lon="-0.006793">
        <ele>67.988008</ele>
        <time>2026-05-05T10:48:59.594Z</time>
      </trkpt>
      <trkpt lat="51.033457" lon="-0.005679">
        <ele>70.456410</ele>
        <time>2026-05-05T10:49:36.364Z</time>
      </trkpt>
      <trkpt lat="51.033614" lon="-0.004475">
        <ele>76.286254</ele>
        <time>2026-05-05T10:50:17.971Z</time>
      </trkpt>
      <trkpt lat="51.033592" lon="-0.004197">
        <ele>77.614704</ele>
        <time>2026-05-05T10:50:27.738Z</time>
      </trkpt>
      <trkpt lat="51.033507" lon="-0.003850">
        <ele>79.380308</ele>
        <time>2026-05-05T10:50:40.877Z</time>
      </trkpt>
      <trkpt lat="51.033344" lon="-0.003479">
        <ele>81.526064</ele>
        <time>2026-05-05T10:50:56.954Z</time>
      </trkpt>
      <trkpt lat="51.032694" lon="-0.002378">
        <ele>87.590865</ele>
        <time>2026-05-05T10:51:48.738Z</time>
      </trkpt>
      <trkpt lat="51.032065" lon="-0.001227">
        <ele>93.297042</ele>
        <time>2026-05-05T10:52:30.398Z</time>
      </trkpt>
      <trkpt lat="51.031981" lon="-0.001158">
        <ele>93.859633</ele>
        <time>2026-05-05T10:52:33.955Z</time>
      </trkpt>
      <trkpt lat="51.031673" lon="-0.000967">
        <ele>94.846674</ele>
        <time>2026-05-05T10:52:45.887Z</time>
      </trkpt>
      <trkpt lat="51.031574" lon="-0.000832">
        <ele>95.157421</ele>
        <time>2026-05-05T10:52:50.335Z</time>
      </trkpt>
      <trkpt lat="51.031393" lon="-0.000996">
        <ele>95.653789</ele>
        <time>2026-05-05T10:52:57.079Z</time>
      </trkpt>
      <trkpt lat="51.031190" lon="-0.001125">
        <ele>96.174669</ele>
        <time>2026-05-05T10:53:03.465Z</time>
      </trkpt>
      <trkpt lat="51.031021" lon="-0.001195">
        <ele>96.590779</ele>
        <time>2026-05-05T10:53:08.187Z</time>
      </trkpt>
      <trkpt lat="51.031018" lon="-0.001251">
        <ele>96.674997</ele>
        <time>2026-05-05T10:53:09.088Z</time>
      </trkpt>
      <trkpt lat="51.030839" lon="-0.001651">
        <ele>97.410639</ele>
        <time>2026-05-05T10:53:16.849Z</time>
      </trkpt>
      <trkpt lat="51.030680" lon="-0.002049">
        <ele>98.117187</ele>
        <time>2026-05-05T10:53:23.265Z</time>
      </trkpt>
      <trkpt lat="51.030652" lon="-0.002119">
        <ele>98.241499</ele>
        <time>2026-05-05T10:53:24.352Z</time>
      </trkpt>
      <trkpt lat="51.030541" lon="-0.002372">
        <ele>98.496417</ele>
        <time>2026-05-05T10:53:29.386Z</time>
      </trkpt>
      <trkpt lat="51.030352" lon="-0.002636">
        <ele>98.546056</ele>
        <time>2026-05-05T10:53:35.418Z</time>
      </trkpt>
      <trkpt lat="51.030256" lon="-0.002755">
        <ele>98.570074</ele>
        <time>2026-05-05T10:53:38.279Z</time>
      </trkpt>
      <trkpt lat="51.030513" lon="-0.003151">
        <ele>98.640688</ele>
        <time>2026-05-05T10:53:47.808Z</time>
      </trkpt>
      <trkpt lat="51.030256" lon="-0.002755">
        <ele>98.711302</ele>
        <time>2026-05-05T10:53:56.238Z</time>
      </trkpt>
      <trkpt lat="51.030150" lon="-0.002902">
        <ele>98.739054</ele>
        <time>2026-05-05T10:53:58.389Z</time>
      </trkpt>
      <trkpt lat="51.030066" lon="-0.003093">
        <ele>98.767977</ele>
        <time>2026-05-05T10:54:00.581Z</time>
      </trkpt>
      <trkpt lat="51.029894" lon="-0.003611">
        <ele>98.826367</ele>
        <time>2026-05-05T10:54:06.100Z</time>
      </trkpt>
      <trkpt lat="51.029681" lon="-0.004122">
        <ele>98.767641</ele>
        <time>2026-05-05T10:54:12.912Z</time>
      </trkpt>
      <trkpt lat="51.029229" lon="-0.004882">
        <ele>98.667439</ele>
        <time>2026-05-05T10:54:22.895Z</time>
      </trkpt>
      <trkpt lat="51.028439" lon="-0.005887">
        <ele>98.620508</ele>
        <time>2026-05-05T10:54:42.831Z</time>
      </trkpt>
      <trkpt lat="51.028344" lon="-0.006054">
        <ele>98.649973</ele>
        <time>2026-05-05T10:54:46.176Z</time>
      </trkpt>
      <trkpt lat="51.028093" lon="-0.006682">
        <ele>98.747337</ele>
        <time>2026-05-05T10:54:56.993Z</time>
      </trkpt>
      <trkpt lat="51.027829" lon="-0.007490">
        <ele>98.866481</ele>
        <time>2026-05-05T10:55:08.321Z</time>
      </trkpt>
      <trkpt lat="51.027652" lon="-0.007942">
        <ele>98.897734</ele>
        <time>2026-05-05T10:55:13.487Z</time>
      </trkpt>
      <trkpt lat="51.027401" lon="-0.008379">
        <ele>98.076234</ele>
        <time>2026-05-05T10:55:18.563Z</time>
      </trkpt>
      <trkpt lat="51.026946" lon="-0.009068">
        <ele>96.689441</ele>
        <time>2026-05-05T10:55:26.501Z</time>
      </trkpt>
      <trkpt lat="51.026329" lon="-0.010589">
        <ele>94.251930</ele>
        <time>2026-05-05T10:55:40.663Z</time>
      </trkpt>
      <trkpt lat="51.026026" lon="-0.011197">
        <ele>93.277727</ele>
        <time>2026-05-05T10:55:47.044Z</time>
      </trkpt>
      <trkpt lat="51.025305" lon="-0.012255">
        <ele>91.313368</ele>
        <time>2026-05-05T10:56:00.640Z</time>
      </trkpt>
      <trkpt lat="51.025168" lon="-0.012561">
        <ele>90.794925</ele>
        <time>2026-05-05T10:56:03.843Z</time>
      </trkpt>
      <trkpt lat="51.024757" lon="-0.013655">
        <ele>89.036024</ele>
        <time>2026-05-05T10:56:14.398Z</time>
      </trkpt>
      <trkpt lat="51.024447" lon="-0.014260">
        <ele>87.958913</ele>
        <time>2026-05-05T10:56:20.670Z</time>
      </trkpt>
      <trkpt lat="51.023095" lon="-0.016630">
        <ele>82.285600</ele>
        <time>2026-05-05T10:56:45.524Z</time>
      </trkpt>
      <trkpt lat="51.023002" lon="-0.016762">
        <ele>81.859425</ele>
        <time>2026-05-05T10:56:47.069Z</time>
      </trkpt>
      <trkpt lat="51.022799" lon="-0.017117">
        <ele>80.779552</ele>
        <time>2026-05-05T10:56:50.771Z</time>
      </trkpt>
      <trkpt lat="51.022651" lon="-0.017392">
        <ele>79.964934</ele>
        <time>2026-05-05T10:56:53.529Z</time>
      </trkpt>
      <trkpt lat="51.022376" lon="-0.018041">
        <ele>78.203612</ele>
        <time>2026-05-05T10:56:59.446Z</time>
      </trkpt>
      <trkpt lat="51.021950" lon="-0.019012">
        <ele>75.501127</ele>
        <time>2026-05-05T10:57:08.156Z</time>
      </trkpt>
      <trkpt lat="51.021684" lon="-0.019456">
        <ele>73.888477</ele>
        <time>2026-05-05T10:57:12.605Z</time>
      </trkpt>
      <trkpt lat="51.021594" lon="-0.019609">
        <ele>73.337536</ele>
        <time>2026-05-05T10:57:14.113Z</time>
      </trkpt>
      <trkpt lat="51.021351" lon="-0.020061">
        <ele>71.773702</ele>
        <time>2026-05-05T10:57:18.425Z</time>
      </trkpt>
      <trkpt lat="51.021127" lon="-0.020695">
        <ele>69.861184</ele>
        <time>2026-05-05T10:57:23.722Z</time>
      </trkpt>
      <trkpt lat="51.020798" lon="-0.021436">
        <ele>67.603646</ele>
        <time>2026-05-05T10:57:30.406Z</time>
      </trkpt>
      <trkpt lat="51.019252" lon="-0.023978">
        <ele>60.422952</ele>
        <time>2026-05-05T10:57:57.237Z</time>
      </trkpt>
      <trkpt lat="51.018946" lon="-0.024432">
        <ele>59.355113</ele>
        <time>2026-05-05T10:58:02.586Z</time>
      </trkpt>
      <trkpt lat="51.018346" lon="-0.025225">
        <ele>57.369527</ele>
        <time>2026-05-05T10:58:12.845Z</time>
      </trkpt>
      <trkpt lat="51.018057" lon="-0.025551">
        <ele>56.659180</ele>
        <time>2026-05-05T10:58:17.556Z</time>
      </trkpt>
      <trkpt lat="51.017564" lon="-0.026095">
        <ele>55.456186</ele>
        <time>2026-05-05T10:58:25.677Z</time>
      </trkpt>
      <trkpt lat="51.017135" lon="-0.026556">
        <ele>54.418181</ele>
        <time>2026-05-05T10:58:32.547Z</time>
      </trkpt>
      <trkpt lat="51.016573" lon="-0.027041">
        <ele>52.824839</ele>
        <time>2026-05-05T10:58:40.685Z</time>
      </trkpt>
      <trkpt lat="51.016106" lon="-0.027392">
        <ele>51.290332</ele>
        <time>2026-05-05T10:58:47.165Z</time>
      </trkpt>
      <trkpt lat="51.015355" lon="-0.027863">
        <ele>48.892081</ele>
        <time>2026-05-05T10:58:56.847Z</time>
      </trkpt>
      <trkpt lat="51.014590" lon="-0.028271">
        <ele>47.086931</ele>
        <time>2026-05-05T10:59:06.600Z</time>
      </trkpt>
      <trkpt lat="51.013265" lon="-0.028873">
        <ele>44.764832</ele>
        <time>2026-05-05T10:59:25.581Z</time>
      </trkpt>
      <trkpt lat="51.013091" lon="-0.028939">
        <ele>44.796927</ele>
        <time>2026-05-05T10:59:29.172Z</time>
      </trkpt>
      <trkpt lat="51.012993" lon="-0.029184">
        <ele>44.829699</ele>
        <time>2026-05-05T10:59:32.999Z</time>
      </trkpt>
      <trkpt lat="51.012941" lon="-0.029498">
        <ele>44.866350</ele>
        <time>2026-05-05T10:59:37.421Z</time>
      </trkpt>
      <trkpt lat="51.012938" lon="-0.029688">
        <ele>44.887804</ele>
        <time>2026-05-05T10:59:40.149Z</time>
      </trkpt>
      <trkpt lat="51.013074" lon="-0.030570">
        <ele>44.990310</ele>
        <time>2026-05-05T10:59:53.746Z</time>
      </trkpt>
      <trkpt lat="51.013406" lon="-0.031935">
        <ele>43.526145</ele>
        <time>2026-05-05T11:00:09.217Z</time>
      </trkpt>
      <trkpt lat="51.013426" lon="-0.031994">
        <ele>43.421608</ele>
        <time>2026-05-05T11:00:09.772Z</time>
      </trkpt>
      <trkpt lat="51.013586" lon="-0.032495">
        <ele>42.545234</ele>
        <time>2026-05-05T11:00:14.277Z</time>
      </trkpt>
      <trkpt lat="51.013763" lon="-0.033097">
        <ele>41.508759</ele>
        <time>2026-05-05T11:00:19.270Z</time>
      </trkpt>
      <trkpt lat="51.013948" lon="-0.033889">
        <ele>39.833200</ele>
        <time>2026-05-05T11:00:25.284Z</time>
      </trkpt>
      <trkpt lat="51.014133" lon="-0.035076">
        <ele>36.198942</ele>
        <time>2026-05-05T11:00:33.850Z</time>
      </trkpt>
      <trkpt lat="51.014167" lon="-0.035274">
        <ele>35.588986</ele>
        <time>2026-05-05T11:00:35.296Z</time>
      </trkpt>
      <trkpt lat="51.014278" lon="-0.035826">
        <ele>33.866754</ele>
        <time>2026-05-05T11:00:39.418Z</time>
      </trkpt>
      <trkpt lat="51.014343" lon="-0.036711">
        <ele>32.043378</ele>
        <time>2026-05-05T11:00:46.015Z</time>
      </trkpt>
      <trkpt lat="51.014298" lon="-0.037085">
        <ele>31.983043</ele>
        <time>2026-05-05T11:00:49.072Z</time>
      </trkpt>
      <trkpt lat="51.014137" lon="-0.037706">
        <ele>31.876617</ele>
        <time>2026-05-05T11:00:55.014Z</time>
      </trkpt>
      <trkpt lat="51.014102" lon="-0.038201">
        <ele>31.797690</ele>
        <time>2026-05-05T11:01:00.650Z</time>
      </trkpt>
      <trkpt lat="51.014139" lon="-0.038328">
        <ele>31.775513</ele>
        <time>2026-05-05T11:01:02.664Z</time>
      </trkpt>
      <trkpt lat="51.014193" lon="-0.038459">
        <ele>31.750697</ele>
        <time>2026-05-05T11:01:04.987Z</time>
      </trkpt>
      <trkpt lat="51.014516" lon="-0.038752">
        <ele>31.657032</ele>
        <time>2026-05-05T11:01:15.523Z</time>
      </trkpt>
      <trkpt lat="51.014623" lon="-0.039050">
        <ele>32.255812</ele>
        <time>2026-05-05T11:01:22.678Z</time>
      </trkpt>
      <trkpt lat="51.014767" lon="-0.039893">
        <ele>34.764635</ele>
        <time>2026-05-05T11:01:43.992Z</time>
      </trkpt>
      <trkpt lat="51.014928" lon="-0.040350">
        <ele>36.268954</ele>
        <time>2026-05-05T11:01:58.162Z</time>
      </trkpt>
      <trkpt lat="51.015258" lon="-0.040771">
        <ele>38.200694</ele>
        <time>2026-05-05T11:02:17.084Z</time>
      </trkpt>
      <trkpt lat="51.015658" lon="-0.041653">
        <ele>41.016622</ele>
        <time>2026-05-05T11:02:46.232Z</time>
      </trkpt>
      <trkpt lat="51.015741" lon="-0.041960">
        <ele>41.776748</ele>
        <time>2026-05-05T11:02:54.602Z</time>
      </trkpt>
      <trkpt lat="51.015806" lon="-0.042524">
        <ele>43.081092</ele>
        <time>2026-05-05T11:03:08.026Z</time>
      </trkpt>
      <trkpt lat="51.015799" lon="-0.042881">
        <ele>43.893593</ele>
        <time>2026-05-05T11:03:15.650Z</time>
      </trkpt>
      <trkpt lat="51.015790" lon="-0.043309">
        <ele>44.867756</ele>
        <time>2026-05-05T11:03:23.983Z</time>
      </trkpt>
      <trkpt lat="51.015783" lon="-0.043629">
        <ele>45.596135</ele>
        <time>2026-05-05T11:03:29.726Z</time>
      </trkpt>
      <trkpt lat="51.015779" lon="-0.043811">
        <ele>46.010403</ele>
        <time>2026-05-05T11:03:32.957Z</time>
      </trkpt>
      <trkpt lat="51.015785" lon="-0.043913">
        <ele>46.243446</ele>
        <time>2026-05-05T11:03:34.751Z</time>
      </trkpt>
      <trkpt lat="51.015846" lon="-0.044582">
        <ele>46.980709</ele>
        <time>2026-05-05T11:03:46.490Z</time>
      </trkpt>
      <trkpt lat="51.015896" lon="-0.044872">
        <ele>47.281664</ele>
        <time>2026-05-05T11:03:51.543Z</time>
      </trkpt>
      <trkpt lat="51.015960" lon="-0.044998">
        <ele>47.443746</ele>
        <time>2026-05-05T11:03:54.166Z</time>
      </trkpt>
      <trkpt lat="51.016170" lon="-0.045207">
        <ele>47.837926</ele>
        <time>2026-05-05T11:04:00.355Z</time>
      </trkpt>
      <trkpt lat="51.017037" lon="-0.045552">
        <ele>49.238742</ele>
        <time>2026-05-05T11:04:21.863Z</time>
      </trkpt>
      <trkpt lat="51.017231" lon="-0.045727">
        <ele>49.432646</ele>
        <time>2026-05-05T11:04:27.092Z</time>
      </trkpt>
      <trkpt lat="51.017371" lon="-0.045950">
        <ele>49.604932</ele>
        <time>2026-05-05T11:04:31.637Z</time>
      </trkpt>
      <trkpt lat="51.017454" lon="-0.046329">
        <ele>49.824390</ele>
        <time>2026-05-05T11:04:37.356Z</time>
      </trkpt>
      <trkpt lat="51.017606" lon="-0.047756">
        <ele>50.615857</ele>
        <time>2026-05-05T11:04:58.160Z</time>
      </trkpt>
      <trkpt lat="51.017682" lon="-0.049005">
        <ele>49.462219</ele>
        <time>2026-05-05T11:05:11.736Z</time>
      </trkpt>
      <trkpt lat="51.017587" lon="-0.049381">
        <ele>48.907553</ele>
        <time>2026-05-05T11:05:15.308Z</time>
      </trkpt>
      <trkpt lat="51.017342" lon="-0.049614">
        <ele>48.286301</ele>
        <time>2026-05-05T11:05:19.043Z</time>
      </trkpt>
      <trkpt lat="51.016529" lon="-0.050386">
        <ele>45.622178</ele>
        <time>2026-05-05T11:05:29.919Z</time>
      </trkpt>
      <trkpt lat="51.016109" lon="-0.050997">
        <ele>43.210484</ele>
        <time>2026-05-05T11:05:36.269Z</time>
      </trkpt>
      <trkpt lat="51.015870" lon="-0.051625">
        <ele>41.254562</ele>
        <time>2026-05-05T11:05:41.575Z</time>
      </trkpt>
      <trkpt lat="51.015832" lon="-0.051765">
        <ele>40.848238</ele>
        <time>2026-05-05T11:05:42.709Z</time>
      </trkpt>
      <trkpt lat="51.015703" lon="-0.052363">
        <ele>39.199935</ele>
        <time>2026-05-05T11:05:47.570Z</time>
      </trkpt>
      <trkpt lat="51.015606" lon="-0.052685">
        <ele>38.678583</ele>
        <time>2026-05-05T11:05:50.454Z</time>
      </trkpt>
      <trkpt lat="51.015491" lon="-0.052929">
        <ele>38.233360</ele>
        <time>2026-05-05T11:05:52.992Z</time>
      </trkpt>
      <trkpt lat="51.015302" lon="-0.053239">
        <ele>37.602953</ele>
        <time>2026-05-05T11:05:56.742Z</time>
      </trkpt>
      <trkpt lat="51.015130" lon="-0.053666">
        <ele>36.862522</ele>
        <time>2026-05-05T11:06:01.188Z</time>
      </trkpt>
      <trkpt lat="51.015029" lon="-0.053786">
        <ele>36.569820</ele>
        <time>2026-05-05T11:06:02.890Z</time>
      </trkpt>
      <trkpt lat="51.014722" lon="-0.053857">
        <ele>35.849690</ele>
        <time>2026-05-05T11:06:06.984Z</time>
      </trkpt>
      <trkpt lat="51.014556" lon="-0.053954">
        <ele>35.439148</ele>
        <time>2026-05-05T11:06:09.232Z</time>
      </trkpt>
      <trkpt lat="51.014265" lon="-0.054211">
        <ele>34.501510</ele>
        <time>2026-05-05T11:06:13.297Z</time>
      </trkpt>
      <trkpt lat="51.014165" lon="-0.054251">
        <ele>34.164092</ele>
        <time>2026-05-05T11:06:14.526Z</time>
      </trkpt>
      <trkpt lat="51.013638" lon="-0.054284">
        <ele>32.438324</ele>
        <time>2026-05-05T11:06:20.732Z</time>
      </trkpt>
      <trkpt lat="51.013401" lon="-0.054331">
        <ele>31.656809</ele>
        <time>2026-05-05T11:06:23.551Z</time>
      </trkpt>
      <trkpt lat="51.013055" lon="-0.054478">
        <ele>30.484894</ele>
        <time>2026-05-05T11:06:27.824Z</time>
      </trkpt>
      <trkpt lat="51.012729" lon="-0.054706">
        <ele>29.319469</ele>
        <time>2026-05-05T11:06:32.191Z</time>
      </trkpt>
      <trkpt lat="51.012371" lon="-0.054870">
        <ele>28.854922</ele>
        <time>2026-05-05T11:06:36.930Z</time>
      </trkpt>
      <trkpt lat="51.012130" lon="-0.054975">
        <ele>28.606898</ele>
        <time>2026-05-05T11:06:40.220Z</time>
      </trkpt>
      <trkpt lat="51.012051" lon="-0.055005">
        <ele>28.526281</ele>
        <time>2026-05-05T11:06:41.317Z</time>
      </trkpt>
      <trkpt lat="51.011066" lon="-0.055443">
        <ele>27.511095</ele>
        <time>2026-05-05T11:06:57.156Z</time>
      </trkpt>
      <trkpt lat="51.010955" lon="-0.055495">
        <ele>27.404382</ele>
        <time>2026-05-05T11:06:59.496Z</time>
      </trkpt>
      <trkpt lat="51.010148" lon="-0.055870">
        <ele>29.959352</ele>
        <time>2026-05-05T11:07:22.106Z</time>
      </trkpt>
      <trkpt lat="51.009784" lon="-0.056165">
        <ele>31.200978</ele>
        <time>2026-05-05T11:07:36.958Z</time>
      </trkpt>
      <trkpt lat="51.009120" lon="-0.056837">
        <ele>33.761483</ele>
        <time>2026-05-05T11:08:09.886Z</time>
      </trkpt>
      <trkpt lat="51.008628" lon="-0.057138">
        <ele>35.733497</ele>
        <time>2026-05-05T11:08:32.059Z</time>
      </trkpt>
      <trkpt lat="51.008450" lon="-0.057291">
        <ele>36.490461</ele>
        <time>2026-05-05T11:08:39.935Z</time>
      </trkpt>
      <trkpt lat="51.008286" lon="-0.057543">
        <ele>37.343754</ele>
        <time>2026-05-05T11:08:48.178Z</time>
      </trkpt>
      <trkpt lat="51.008193" lon="-0.057947">
        <ele>38.356251</ele>
        <time>2026-05-05T11:08:57.049Z</time>
      </trkpt>
      <trkpt lat="51.008072" lon="-0.058590">
        <ele>39.621897</ele>
        <time>2026-05-05T11:09:08.925Z</time>
      </trkpt>
      <trkpt lat="51.008004" lon="-0.058891">
        <ele>39.687457</ele>
        <time>2026-05-05T11:09:13.754Z</time>
      </trkpt>
      <trkpt lat="51.007484" lon="-0.060558">
        <ele>40.068875</ele>
        <time>2026-05-05T11:09:35.111Z</time>
      </trkpt>
      <trkpt lat="51.007441" lon="-0.060695">
        <ele>40.100260</ele>
        <time>2026-05-05T11:09:36.605Z</time>
      </trkpt>
      <trkpt lat="51.006872" lon="-0.061818">
        <ele>40.067687</ele>
        <time>2026-05-05T11:09:50.215Z</time>
      </trkpt>
      <trkpt lat="51.006793" lon="-0.061974">
        <ele>40.046917</ele>
        <time>2026-05-05T11:09:52.130Z</time>
      </trkpt>
      <trkpt lat="51.006404" lon="-0.062847">
        <ele>39.935963</ele>
        <time>2026-05-05T11:10:03.183Z</time>
      </trkpt>
      <trkpt lat="51.006386" lon="-0.062887">
        <ele>39.930862</ele>
        <time>2026-05-05T11:10:03.730Z</time>
      </trkpt>
      <trkpt lat="51.005031" lon="-0.066152">
        <ele>42.385301</ele>
        <time>2026-05-05T11:11:00.918Z</time>
      </trkpt>
      <trkpt lat="51.004923" lon="-0.066412">
        <ele>42.687963</ele>
        <time>2026-05-05T11:11:05.901Z</time>
      </trkpt>
      <trkpt lat="51.004390" lon="-0.067376">
        <ele>43.934661</ele>
        <time>2026-05-05T11:11:27.103Z</time>
      </trkpt>
      <trkpt lat="51.003882" lon="-0.067583">
        <ele>44.736382</ele>
        <time>2026-05-05T11:11:40.605Z</time>
      </trkpt>
      <trkpt lat="51.003435" lon="-0.067687">
        <ele>45.394809</ele>
        <time>2026-05-05T11:11:51.993Z</time>
      </trkpt>
      <trkpt lat="51.003392" lon="-0.067642">
        <ele>45.469848</ele>
        <time>2026-05-05T11:11:53.254Z</time>
      </trkpt>
      <trkpt lat="51.003232" lon="-0.067473">
        <ele>45.749853</ele>
        <time>2026-05-05T11:11:58.048Z</time>
      </trkpt>
      <trkpt lat="51.002508" lon="-0.066720">
        <ele>47.010958</ele>
        <time>2026-05-05T11:12:18.528Z</time>
      </trkpt>
      <trkpt lat="51.001916" lon="-0.066178">
        <ele>48.778225</ele>
        <time>2026-05-05T11:12:35.879Z</time>
      </trkpt>
      <trkpt lat="51.001517" lon="-0.065937">
        <ele>50.013336</ele>
        <time>2026-05-05T11:12:48.827Z</time>
      </trkpt>
      <trkpt lat="51.001236" lon="-0.065867">
        <ele>50.836351</ele>
        <time>2026-05-05T11:12:58.097Z</time>
      </trkpt>
      <trkpt lat="51.001141" lon="-0.065856">
        <ele>51.111966</ele>
        <time>2026-05-05T11:13:01.391Z</time>
      </trkpt>
      <trkpt lat="51.000938" lon="-0.065874">
        <ele>51.700268</ele>
        <time>2026-05-05T11:13:08.483Z</time>
      </trkpt>
      <trkpt lat="51.000280" lon="-0.065874">
        <ele>54.567057</ele>
        <time>2026-05-05T11:13:35.037Z</time>
      </trkpt>
      <trkpt lat="50.999775" lon="-0.065756">
        <ele>57.253228</ele>
        <time>2026-05-05T11:13:58.374Z</time>
      </trkpt>
      <trkpt lat="50.999276" lon="-0.065348">
        <ele>60.206501</ele>
        <time>2026-05-05T11:14:23.715Z</time>
      </trkpt>
      <trkpt lat="50.998754" lon="-0.064651">
        <ele>63.931684</ele>
        <time>2026-05-05T11:14:52.735Z</time>
      </trkpt>
      <trkpt lat="50.998270" lon="-0.064192">
        <ele>67.111697</ele>
        <time>2026-05-05T11:15:16.526Z</time>
      </trkpt>
      <trkpt lat="50.998086" lon="-0.064121">
        <ele>68.179966</ele>
        <time>2026-05-05T11:15:24.871Z</time>
      </trkpt>
      <trkpt lat="50.997906" lon="-0.064125">
        <ele>69.195594</ele>
        <time>2026-05-05T11:15:33.254Z</time>
      </trkpt>
      <trkpt lat="50.997187" lon="-0.064239">
        <ele>72.931238</ele>
        <time>2026-05-05T11:16:08.713Z</time>
      </trkpt>
      <trkpt lat="50.996623" lon="-0.064285">
        <ele>75.234810</ele>
        <time>2026-05-05T11:16:35.404Z</time>
      </trkpt>
      <trkpt lat="50.996593" lon="-0.064922">
        <ele>76.874669</ele>
        <time>2026-05-05T11:16:51.380Z</time>
      </trkpt>
      <trkpt lat="50.996515" lon="-0.065338">
        <ele>77.988999</ele>
        <time>2026-05-05T11:17:00.328Z</time>
      </trkpt>
      <trkpt lat="50.996322" lon="-0.066031">
        <ele>79.109070</ele>
        <time>2026-05-05T11:17:11.112Z</time>
      </trkpt>
      <trkpt lat="50.996112" lon="-0.066642">
        <ele>78.245689</ele>
        <time>2026-05-05T11:17:17.501Z</time>
      </trkpt>
      <trkpt lat="50.995865" lon="-0.067205">
        <ele>77.394563</ele>
        <time>2026-05-05T11:17:23.204Z</time>
      </trkpt>
      <trkpt lat="50.995801" lon="-0.067109">
        <ele>77.221129</ele>
        <time>2026-05-05T11:17:24.342Z</time>
      </trkpt>
      <trkpt lat="50.994897" lon="-0.067343">
        <ele>74.726239</ele>
        <time>2026-05-05T11:17:35.289Z</time>
      </trkpt>
      <trkpt lat="50.994056" lon="-0.067350">
        <ele>70.329060</ele>
        <time>2026-05-05T11:17:44.723Z</time>
      </trkpt>
      <trkpt lat="50.993418" lon="-0.067355">
        <ele>66.993274</ele>
        <time>2026-05-05T11:17:51.754Z</time>
      </trkpt>
      <trkpt lat="50.993283" lon="-0.067356">
        <ele>66.264718</ele>
        <time>2026-05-05T11:17:53.241Z</time>
      </trkpt>
      <trkpt lat="50.992908" lon="-0.067555">
        <ele>63.867336</ele>
        <time>2026-05-05T11:17:57.595Z</time>
      </trkpt>
      <trkpt lat="50.991943" lon="-0.068067">
        <ele>57.698177</ele>
        <time>2026-05-05T11:18:08.761Z</time>
      </trkpt>
      <trkpt lat="50.991111" lon="-0.068366">
        <ele>53.520891</ele>
        <time>2026-05-05T11:18:18.115Z</time>
      </trkpt>
      <trkpt lat="50.990330" lon="-0.068388">
        <ele>50.356984</ele>
        <time>2026-05-05T11:18:27.008Z</time>
      </trkpt>
      <trkpt lat="50.989963" lon="-0.068549">
        <ele>48.814832</ele>
        <time>2026-05-05T11:18:31.862Z</time>
      </trkpt>
      <trkpt lat="50.989822" lon="-0.068521">
        <ele>48.239272</ele>
        <time>2026-05-05T11:18:33.902Z</time>
      </trkpt>
      <trkpt lat="50.989327" lon="-0.068423">
        <ele>49.380020</ele>
        <time>2026-05-05T11:18:43.467Z</time>
      </trkpt>
      <trkpt lat="50.989126" lon="-0.068678">
        <ele>49.969471</ele>
        <time>2026-05-05T11:18:50.532Z</time>
      </trkpt>
      <trkpt lat="50.988646" lon="-0.069933">
        <ele>52.087742</ele>
        <time>2026-05-05T11:19:24.685Z</time>
      </trkpt>
      <trkpt lat="50.987962" lon="-0.070711">
        <ele>53.422997</ele>
        <time>2026-05-05T11:19:55.832Z</time>
      </trkpt>
      <trkpt lat="50.987242" lon="-0.071261">
        <ele>54.598735</ele>
        <time>2026-05-05T11:20:14.112Z</time>
      </trkpt>
      <trkpt lat="50.987075" lon="-0.071429">
        <ele>54.889638</ele>
        <time>2026-05-05T11:20:16.904Z</time>
      </trkpt>
      <trkpt lat="50.986951" lon="-0.071553">
        <ele>54.741651</ele>
        <time>2026-05-05T11:20:18.818Z</time>
      </trkpt>
      <trkpt lat="50.986430" lon="-0.071645">
        <ele>52.673845</ele>
        <time>2026-05-05T11:20:25.165Z</time>
      </trkpt>
      <trkpt lat="50.986168" lon="-0.071767">
        <ele>51.596867</ele>
        <time>2026-05-05T11:20:28.298Z</time>
      </trkpt>
      <trkpt lat="50.985749" lon="-0.071810">
        <ele>49.940624</ele>
        <time>2026-05-05T11:20:33.043Z</time>
      </trkpt>
      <trkpt lat="50.985060" lon="-0.072025">
        <ele>46.962352</ele>
        <time>2026-05-05T11:20:41.026Z</time>
      </trkpt>
      <trkpt lat="50.984996" lon="-0.072084">
        <ele>46.588300</ele>
        <time>2026-05-05T11:20:41.865Z</time>
      </trkpt>
      <trkpt lat="50.984674" lon="-0.072379">
        <ele>44.709290</ele>
        <time>2026-05-05T11:20:46.036Z</time>
      </trkpt>
      <trkpt lat="50.984410" lon="-0.072628">
        <ele>43.157262</ele>
        <time>2026-05-05T11:20:49.481Z</time>
      </trkpt>
      <trkpt lat="50.983776" lon="-0.073110">
        <ele>39.604262</ele>
        <time>2026-05-05T11:20:57.419Z</time>
      </trkpt>
      <trkpt lat="50.983696" lon="-0.073152">
        <ele>39.178349</ele>
        <time>2026-05-05T11:20:58.353Z</time>
      </trkpt>
      <trkpt lat="50.983045" lon="-0.073326">
        <ele>36.961967</ele>
        <time>2026-05-05T11:21:05.860Z</time>
      </trkpt>
      <trkpt lat="50.982796" lon="-0.073399">
        <ele>36.163665</ele>
        <time>2026-05-05T11:21:08.867Z</time>
      </trkpt>
      <trkpt lat="50.982584" lon="-0.073595">
        <ele>35.390302</ele>
        <time>2026-05-05T11:21:11.847Z</time>
      </trkpt>
      <trkpt lat="50.982525" lon="-0.073776">
        <ele>34.985743</ele>
        <time>2026-05-05T11:21:13.416Z</time>
      </trkpt>
      <trkpt lat="50.982345" lon="-0.074322">
        <ele>33.762413</ele>
        <time>2026-05-05T11:21:18.435Z</time>
      </trkpt>
      <trkpt lat="50.982124" lon="-0.074614">
        <ele>33.160760</ele>
        <time>2026-05-05T11:21:22.594Z</time>
      </trkpt>
      <trkpt lat="50.981805" lon="-0.075035">
        <ele>33.214730</ele>
        <time>2026-05-05T11:21:30.625Z</time>
      </trkpt>
      <trkpt lat="50.980769" lon="-0.075741">
        <ele>33.361429</ele>
        <time>2026-05-05T11:21:55.153Z</time>
      </trkpt>
      <trkpt lat="50.979991" lon="-0.076271">
        <ele>32.600360</ele>
        <time>2026-05-05T11:22:09.338Z</time>
      </trkpt>
      <trkpt lat="50.978915" lon="-0.076922">
        <ele>31.307992</ele>
        <time>2026-05-05T11:22:24.494Z</time>
      </trkpt>
      <trkpt lat="50.978627" lon="-0.076958">
        <ele>31.196883</ele>
        <time>2026-05-05T11:22:28.445Z</time>
      </trkpt>
      <trkpt lat="50.978335" lon="-0.076890">
        <ele>31.083377</ele>
        <time>2026-05-05T11:22:32.712Z</time>
      </trkpt>
      <trkpt lat="50.977836" lon="-0.077003">
        <ele>30.889518</ele>
        <time>2026-05-05T11:22:40.846Z</time>
      </trkpt>
      <trkpt lat="50.977286" lon="-0.077012">
        <ele>30.677974</ele>
        <time>2026-05-05T11:22:51.628Z</time>
      </trkpt>
      <trkpt lat="50.975754" lon="-0.077182">
        <ele>32.639631</ele>
        <time>2026-05-05T11:23:28.198Z</time>
      </trkpt>
      <trkpt lat="50.975142" lon="-0.077542">
        <ele>33.979057</ele>
        <time>2026-05-05T11:23:46.461Z</time>
      </trkpt>
      <trkpt lat="50.974866" lon="-0.077751">
        <ele>34.887892</ele>
        <time>2026-05-05T11:23:55.436Z</time>
      </trkpt>
      <trkpt lat="50.974527" lon="-0.078153">
        <ele>36.145399</ele>
        <time>2026-05-05T11:24:08.602Z</time>
      </trkpt>
      <trkpt lat="50.974225" lon="-0.078590">
        <ele>37.359755</ele>
        <time>2026-05-05T11:24:21.760Z</time>
      </trkpt>
      <trkpt lat="50.973179" lon="-0.079035">
        <ele>42.028486</ele>
        <time>2026-05-05T11:25:02.823Z</time>
      </trkpt>
      <trkpt lat="50.972699" lon="-0.079122">
        <ele>44.485163</ele>
        <time>2026-05-05T11:25:25.025Z</time>
      </trkpt>
      <trkpt lat="50.972191" lon="-0.079297">
        <ele>47.128455</ele>
        <time>2026-05-05T11:25:50.622Z</time>
      </trkpt>
      <trkpt lat="50.970937" lon="-0.079849">
        <ele>50.701922</ele>
        <time>2026-05-05T11:26:42.441Z</time>
      </trkpt>
      <trkpt lat="50.970599" lon="-0.080059">
        <ele>51.620721</ele>
        <time>2026-05-05T11:26:48.848Z</time>
      </trkpt>
      <trkpt lat="50.970434" lon="-0.080151">
        <ele>52.063416</ele>
        <time>2026-05-05T11:26:51.247Z</time>
      </trkpt>
      <trkpt lat="50.970360" lon="-0.080205">
        <ele>52.190527</ele>
        <time>2026-05-05T11:26:52.312Z</time>
      </trkpt>
      <trkpt lat="50.970072" lon="-0.080362">
        <ele>51.041115</ele>
        <time>2026-05-05T11:26:55.993Z</time>
      </trkpt>
      <trkpt lat="50.969629" lon="-0.080483">
        <ele>49.344328</ele>
        <time>2026-05-05T11:27:01.063Z</time>
      </trkpt>
      <trkpt lat="50.969422" lon="-0.080398">
        <ele>48.537246</ele>
        <time>2026-05-05T11:27:03.463Z</time>
      </trkpt>
      <trkpt lat="50.969106" lon="-0.080375">
        <ele>47.343161</ele>
        <time>2026-05-05T11:27:07.074Z</time>
      </trkpt>
      <trkpt lat="50.968742" lon="-0.080478">
        <ele>45.947494</ele>
        <time>2026-05-05T11:27:11.376Z</time>
      </trkpt>
      <trkpt lat="50.968503" lon="-0.080617">
        <ele>45.307692</ele>
        <time>2026-05-05T11:27:14.447Z</time>
      </trkpt>
      <trkpt lat="50.968343" lon="-0.080773">
        <ele>45.091746</ele>
        <time>2026-05-05T11:27:16.756Z</time>
      </trkpt>
      <trkpt lat="50.968088" lon="-0.081130">
        <ele>44.700742</ele>
        <time>2026-05-05T11:27:21.153Z</time>
      </trkpt>
      <trkpt lat="50.967946" lon="-0.081319">
        <ele>44.487635</ele>
        <time>2026-05-05T11:27:23.771Z</time>
      </trkpt>
      <trkpt lat="50.967629" lon="-0.081630">
        <ele>44.059058</ele>
        <time>2026-05-05T11:27:29.840Z</time>
      </trkpt>
      <trkpt lat="50.967487" lon="-0.081720">
        <ele>43.883206</ele>
        <time>2026-05-05T11:27:32.771Z</time>
      </trkpt>
      <trkpt lat="50.967373" lon="-0.081748">
        <ele>43.750528</ele>
        <time>2026-05-05T11:27:35.005Z</time>
      </trkpt>
      <trkpt lat="50.966516" lon="-0.081660">
        <ele>43.682816</ele>
        <time>2026-05-05T11:27:52.993Z</time>
      </trkpt>
      <trkpt lat="50.966029" lon="-0.081726">
        <ele>43.959136</ele>
        <time>2026-05-05T11:28:03.024Z</time>
      </trkpt>
      <trkpt lat="50.965846" lon="-0.081770">
        <ele>44.063772</ele>
        <time>2026-05-05T11:28:06.463Z</time>
      </trkpt>
      <trkpt lat="50.965461" lon="-0.081967">
        <ele>44.292448</ele>
        <time>2026-05-05T11:28:14.451Z</time>
      </trkpt>
      <trkpt lat="50.964956" lon="-0.082451">
        <ele>44.894589</ele>
        <time>2026-05-05T11:28:26.884Z</time>
      </trkpt>
      <trkpt lat="50.964834" lon="-0.081935">
        <ele>45.320601</ele>
        <time>2026-05-05T11:28:35.045Z</time>
      </trkpt>
      <trkpt lat="50.964415" lon="-0.080642">
        <ele>46.444544</ele>
        <time>2026-05-05T11:28:58.694Z</time>
      </trkpt>
      <trkpt lat="50.964363" lon="-0.080480">
        <ele>46.585086</ele>
        <time>2026-05-05T11:29:01.649Z</time>
      </trkpt>
      <trkpt lat="50.964058" lon="-0.079484">
        <ele>47.490471</ele>
        <time>2026-05-05T11:29:18.060Z</time>
      </trkpt>
      <trkpt lat="50.963845" lon="-0.078639">
        <ele>48.235455</ele>
        <time>2026-05-05T11:29:30.760Z</time>
      </trkpt>
      <trkpt lat="50.963765" lon="-0.077799">
        <ele>48.930826</ele>
        <time>2026-05-05T11:29:43.259Z</time>
      </trkpt>
      <trkpt lat="50.963725" lon="-0.077292">
        <ele>49.530228</ele>
        <time>2026-05-05T11:29:51.888Z</time>
      </trkpt>
      <trkpt lat="50.963679" lon="-0.076739">
        <ele>50.189731</ele>
        <time>2026-05-05T11:30:02.371Z</time>
      </trkpt>
      <trkpt lat="50.963649" lon="-0.076365">
        <ele>50.635493</ele>
        <time>2026-05-05T11:30:09.373Z</time>
      </trkpt>
      <trkpt lat="50.963587" lon="-0.075645">
        <ele>51.494687</ele>
        <time>2026-05-05T11:30:22.149Z</time>
      </trkpt>
      <trkpt lat="50.963546" lon="-0.075397">
        <ele>51.797838</ele>
        <time>2026-05-05T11:30:26.411Z</time>
      </trkpt>
      <trkpt lat="50.963498" lon="-0.075240">
        <ele>52.004178</ele>
        <time>2026-05-05T11:30:29.252Z</time>
      </trkpt>
      <trkpt lat="50.963405" lon="-0.075262">
        <ele>52.180691</ele>
        <time>2026-05-05T11:30:31.633Z</time>
      </trkpt>
      <trkpt lat="50.963254" lon="-0.075302">
        <ele>52.452255</ele>
        <time>2026-05-05T11:30:35.423Z</time>
      </trkpt>
      <trkpt lat="50.963094" lon="-0.075346">
        <ele>52.724959</ele>
        <time>2026-05-05T11:30:39.394Z</time>
      </trkpt>
      <trkpt lat="50.962854" lon="-0.075439">
        <ele>53.139844</ele>
        <time>2026-05-05T11:30:45.185Z</time>
      </trkpt>
      <trkpt lat="50.962602" lon="-0.075536">
        <ele>53.575311</ele>
        <time>2026-05-05T11:30:50.752Z</time>
      </trkpt>
      <trkpt lat="50.962458" lon="-0.075602">
        <ele>53.827019</ele>
        <time>2026-05-05T11:30:54.095Z</time>
      </trkpt>
      <trkpt lat="50.962145" lon="-0.075758">
        <ele>54.377960</ele>
        <time>2026-05-05T11:31:02.067Z</time>
      </trkpt>
      <trkpt lat="50.961917" lon="-0.076164">
        <ele>54.953317</ele>
        <time>2026-05-05T11:31:11.796Z</time>
      </trkpt>
      <trkpt lat="50.961806" lon="-0.076345">
        <ele>55.220532</ele>
        <time>2026-05-05T11:31:16.523Z</time>
      </trkpt>
      <trkpt lat="50.961263" lon="-0.077257">
        <ele>57.357445</ele>
        <time>2026-05-05T11:31:41.540Z</time>
      </trkpt>
      <trkpt lat="50.960975" lon="-0.077771">
        <ele>58.572175</ele>
        <time>2026-05-05T11:31:56.037Z</time>
      </trkpt>
      <trkpt lat="50.960880" lon="-0.077987">
        <ele>59.037355</ele>
        <time>2026-05-05T11:32:01.520Z</time>
      </trkpt>
      <trkpt lat="50.960806" lon="-0.078338">
        <ele>59.690925</ele>
        <time>2026-05-05T11:32:08.765Z</time>
      </trkpt>
      <trkpt lat="50.960572" lon="-0.079820">
        <ele>62.184448</ele>
        <time>2026-05-05T11:32:36.824Z</time>
      </trkpt>
      <trkpt lat="50.960409" lon="-0.080319">
        <ele>63.076016</ele>
        <time>2026-05-05T11:32:48.081Z</time>
      </trkpt>
      <trkpt lat="50.960221" lon="-0.080721">
        <ele>63.870168</ele>
        <time>2026-05-05T11:32:57.907Z</time>
      </trkpt>
      <trkpt lat="50.959973" lon="-0.080935">
        <ele>64.580960</ele>
        <time>2026-05-05T11:33:06.310Z</time>
      </trkpt>
      <trkpt lat="50.959707" lon="-0.081064">
        <ele>64.949202</ele>
        <time>2026-05-05T11:33:14.261Z</time>
      </trkpt>
      <trkpt lat="50.959395" lon="-0.081080">
        <ele>65.031677</ele>
        <time>2026-05-05T11:33:22.684Z</time>
      </trkpt>
      <trkpt lat="50.959332" lon="-0.081084">
        <ele>65.048335</ele>
        <time>2026-05-05T11:33:24.327Z</time>
      </trkpt>
      <trkpt lat="50.958887" lon="-0.081304">
        <ele>65.171475</ele>
        <time>2026-05-05T11:33:34.033Z</time>
      </trkpt>
      <trkpt lat="50.958278" lon="-0.081697">
        <ele>65.345160</ele>
        <time>2026-05-05T11:33:43.572Z</time>
      </trkpt>
      <trkpt lat="50.957778" lon="-0.081987">
        <ele>64.947329</ele>
        <time>2026-05-05T11:33:50.854Z</time>
      </trkpt>
      <trkpt lat="50.956055" lon="-0.082158">
        <ele>63.182105</ele>
        <time>2026-05-05T11:34:15.714Z</time>
      </trkpt>
      <trkpt lat="50.956046" lon="-0.082592">
        <ele>63.068261</ele>
        <time>2026-05-05T11:34:27.567Z</time>
      </trkpt>
      <trkpt lat="50.956055" lon="-0.082158">
        <ele>62.954416</ele>
        <time>2026-05-05T11:34:39.552Z</time>
      </trkpt>
      <trkpt lat="50.954011" lon="-0.082083">
        <ele>61.801465</ele>
        <time>2026-05-05T11:35:14.477Z</time>
      </trkpt>
      <trkpt lat="50.953069" lon="-0.082009">
        <ele>61.020165</ele>
        <time>2026-05-05T11:35:27.437Z</time>
      </trkpt>
      <trkpt lat="50.952260" lon="-0.082025">
        <ele>60.032238</ele>
        <time>2026-05-05T11:35:38.383Z</time>
      </trkpt>
      <trkpt lat="50.952028" lon="-0.082026">
        <ele>59.748947</ele>
        <time>2026-05-05T11:35:41.610Z</time>
      </trkpt>
      <trkpt lat="50.951828" lon="-0.082090">
        <ele>59.499819</ele>
        <time>2026-05-05T11:35:44.551Z</time>
      </trkpt>
      <trkpt lat="50.951347" lon="-0.082336">
        <ele>59.156918</ele>
        <time>2026-05-05T11:35:53.050Z</time>
      </trkpt>
      <trkpt lat="50.951031" lon="-0.082493">
        <ele>59.214106</ele>
        <time>2026-05-05T11:35:59.635Z</time>
      </trkpt>
      <trkpt lat="50.950484" lon="-0.082752">
        <ele>59.312692</ele>
        <time>2026-05-05T11:36:10.861Z</time>
      </trkpt>
      <trkpt lat="50.949793" lon="-0.082791">
        <ele>59.432111</ele>
        <time>2026-05-05T11:36:24.333Z</time>
      </trkpt>
      <trkpt lat="50.948736" lon="-0.082500">
        <ele>59.547895</ele>
        <time>2026-05-05T11:36:43.280Z</time>
      </trkpt>
      <trkpt lat="50.948604" lon="-0.082439">
        <ele>59.562662</ele>
        <time>2026-05-05T11:36:45.702Z</time>
      </trkpt>
      <trkpt lat="50.948327" lon="-0.082286">
        <ele>59.594163</ele>
        <time>2026-05-05T11:36:51.268Z</time>
      </trkpt>
      <trkpt lat="50.947727" lon="-0.081782">
        <ele>59.404162</ele>
        <time>2026-05-05T11:37:04.577Z</time>
      </trkpt>
      <trkpt lat="50.947547" lon="-0.081598">
        <ele>59.277127</ele>
        <time>2026-05-05T11:37:08.297Z</time>
      </trkpt>
      <trkpt lat="50.947454" lon="-0.081377">
        <ele>59.177778</ele>
        <time>2026-05-05T11:37:10.919Z</time>
      </trkpt>
      <trkpt lat="50.947274" lon="-0.080877">
        <ele>58.962503</ele>
        <time>2026-05-05T11:37:16.450Z</time>
      </trkpt>
      <trkpt lat="50.947100" lon="-0.080614">
        <ele>58.819937</ele>
        <time>2026-05-05T11:37:20.125Z</time>
      </trkpt>
      <trkpt lat="50.946933" lon="-0.080454">
        <ele>58.704196</ele>
        <time>2026-05-05T11:37:23.030Z</time>
      </trkpt>
      <trkpt lat="50.946647" lon="-0.080343">
        <ele>58.484721</ele>
        <time>2026-05-05T11:37:27.203Z</time>
      </trkpt>
      <trkpt lat="50.945652" lon="-0.080135">
        <ele>57.002328</ele>
        <time>2026-05-05T11:37:40.479Z</time>
      </trkpt>
      <trkpt lat="50.945551" lon="-0.080109">
        <ele>56.851193</ele>
        <time>2026-05-05T11:37:41.848Z</time>
      </trkpt>
      <trkpt lat="50.945323" lon="-0.080076">
        <ele>56.513021</ele>
        <time>2026-05-05T11:37:44.926Z</time>
      </trkpt>
      <trkpt lat="50.944178" lon="-0.079898">
        <ele>56.337680</ele>
        <time>2026-05-05T11:38:02.541Z</time>
      </trkpt>
      <trkpt lat="50.944380" lon="-0.082127">
        <ele>57.270821</ele>
        <time>2026-05-05T11:38:38.854Z</time>
      </trkpt>
      <trkpt lat="50.944523" lon="-0.084345">
        <ele>58.477777</ele>
        <time>2026-05-05T11:39:10.237Z</time>
      </trkpt>
      <trkpt lat="50.944526" lon="-0.084505">
        <ele>58.493576</ele>
        <time>2026-05-05T11:39:11.766Z</time>
      </trkpt>
      <trkpt lat="50.944429" lon="-0.086657">
        <ele>58.171186</ele>
        <time>2026-05-05T11:39:31.711Z</time>
      </trkpt>
      <trkpt lat="50.944366" lon="-0.087496">
        <ele>58.288746</ele>
        <time>2026-05-05T11:39:42.976Z</time>
      </trkpt>
      <trkpt lat="50.944291" lon="-0.087744">
        <ele>58.515548</ele>
        <time>2026-05-05T11:39:47.267Z</time>
      </trkpt>
      <trkpt lat="50.943886" lon="-0.088369">
        <ele>59.254727</ele>
        <time>2026-05-05T11:40:03.284Z</time>
      </trkpt>
      <trkpt lat="50.943797" lon="-0.088699">
        <ele>59.550682</ele>
        <time>2026-05-05T11:40:09.962Z</time>
      </trkpt>
      <trkpt lat="50.943794" lon="-0.088835">
        <ele>59.662880</ele>
        <time>2026-05-05T11:40:12.400Z</time>
      </trkpt>
      <trkpt lat="50.944009" lon="-0.090283">
        <ele>60.164379</ele>
        <time>2026-05-05T11:40:33.197Z</time>
      </trkpt>
      <trkpt lat="50.944022" lon="-0.091805">
        <ele>59.412965</ele>
        <time>2026-05-05T11:40:46.677Z</time>
      </trkpt>
      <trkpt lat="50.944025" lon="-0.092225">
        <ele>59.205616</ele>
        <time>2026-05-05T11:40:50.232Z</time>
      </trkpt>
      <trkpt lat="50.944040" lon="-0.092650">
        <ele>59.019936</ele>
        <time>2026-05-05T11:40:53.921Z</time>
      </trkpt>
      <trkpt lat="50.943966" lon="-0.092806">
        <ele>58.999021</ele>
        <time>2026-05-05T11:40:55.681Z</time>
      </trkpt>
      <trkpt lat="50.943861" lon="-0.092922">
        <ele>58.977272</ele>
        <time>2026-05-05T11:40:57.533Z</time>
      </trkpt>
      <trkpt lat="50.943181" lon="-0.092804">
        <ele>58.860982</ele>
        <time>2026-05-05T11:41:08.616Z</time>
      </trkpt>
      <trkpt lat="50.942208" lon="-0.092683">
        <ele>58.557448</ele>
        <time>2026-05-05T11:41:29.452Z</time>
      </trkpt>
      <trkpt lat="50.942034" lon="-0.092656">
        <ele>58.369671</ele>
        <time>2026-05-05T11:41:32.951Z</time>
      </trkpt>
      <trkpt lat="50.941412" lon="-0.092548">
        <ele>57.697619</ele>
        <time>2026-05-05T11:41:43.135Z</time>
      </trkpt>
      <trkpt lat="50.940900" lon="-0.092436">
        <ele>57.142501</ele>
        <time>2026-05-05T11:41:50.207Z</time>
      </trkpt>
      <trkpt lat="50.940165" lon="-0.092158">
        <ele>55.106860</ele>
        <time>2026-05-05T11:41:59.472Z</time>
      </trkpt>
      <trkpt lat="50.939900" lon="-0.092155">
        <ele>54.061712</ele>
        <time>2026-05-05T11:42:02.573Z</time>
      </trkpt>
      <trkpt lat="50.939418" lon="-0.092275">
        <ele>52.137525</ele>
        <time>2026-05-05T11:42:08.181Z</time>
      </trkpt>
      <trkpt lat="50.938760" lon="-0.092549">
        <ele>49.485191</ele>
        <time>2026-05-05T11:42:16.006Z</time>
      </trkpt>
      <trkpt lat="50.938499" lon="-0.092711">
        <ele>48.520196</ele>
        <time>2026-05-05T11:42:19.235Z</time>
      </trkpt>
      <trkpt lat="50.938468" lon="-0.092727">
        <ele>48.407951</ele>
        <time>2026-05-05T11:42:19.619Z</time>
      </trkpt>
      <trkpt lat="50.938372" lon="-0.092765">
        <ele>48.067267</ele>
        <time>2026-05-05T11:42:20.766Z</time>
      </trkpt>
      <trkpt lat="50.937724" lon="-0.093020">
        <ele>45.768437</ele>
        <time>2026-05-05T11:42:28.659Z</time>
      </trkpt>
      <trkpt lat="50.936980" lon="-0.093528">
        <ele>43.367571</ele>
        <time>2026-05-05T11:42:38.837Z</time>
      </trkpt>
      <trkpt lat="50.936459" lon="-0.093806">
        <ele>42.879867</ele>
        <time>2026-05-05T11:42:46.516Z</time>
      </trkpt>
      <trkpt lat="50.935588" lon="-0.094109">
        <ele>42.088699</ele>
        <time>2026-05-05T11:43:00.932Z</time>
      </trkpt>
      <trkpt lat="50.935478" lon="-0.094147">
        <ele>41.988813</ele>
        <time>2026-05-05T11:43:03.065Z</time>
      </trkpt>
      <trkpt lat="50.935082" lon="-0.094286">
        <ele>42.037426</ele>
        <time>2026-05-05T11:43:11.116Z</time>
      </trkpt>
      <trkpt lat="50.934250" lon="-0.094671">
        <ele>42.400677</ele>
        <time>2026-05-05T11:43:28.062Z</time>
      </trkpt>
      <trkpt lat="50.933235" lon="-0.095197">
        <ele>43.036757</ele>
        <time>2026-05-05T11:43:50.218Z</time>
      </trkpt>
      <trkpt lat="50.932318" lon="-0.095566">
        <ele>43.831019</ele>
        <time>2026-05-05T11:44:10.112Z</time>
      </trkpt>
      <trkpt lat="50.931733" lon="-0.095855">
        <ele>44.624897</ele>
        <time>2026-05-05T11:44:24.700Z</time>
      </trkpt>
      <trkpt lat="50.931390" lon="-0.096012">
        <ele>45.403065</ele>
        <time>2026-05-05T11:44:33.567Z</time>
      </trkpt>
      <trkpt lat="50.930905" lon="-0.096212">
        <ele>46.495401</ele>
        <time>2026-05-05T11:44:47.377Z</time>
      </trkpt>
      <trkpt lat="50.930426" lon="-0.096380">
        <ele>47.564742</ele>
        <time>2026-05-05T11:45:03.242Z</time>
      </trkpt>
      <trkpt lat="50.930159" lon="-0.096428">
        <ele>48.126477</ele>
        <time>2026-05-05T11:45:12.110Z</time>
      </trkpt>
      <trkpt lat="50.929647" lon="-0.096449">
        <ele>48.791809</ele>
        <time>2026-05-05T11:45:28.714Z</time>
      </trkpt>
      <trkpt lat="50.928931" lon="-0.096553">
        <ele>49.725814</ele>
        <time>2026-05-05T11:45:46.897Z</time>
      </trkpt>
      <trkpt lat="50.928807" lon="-0.096571">
        <ele>49.887568</ele>
        <time>2026-05-05T11:45:49.383Z</time>
      </trkpt>
      <trkpt lat="50.928660" lon="-0.096611">
        <ele>50.081316</ele>
        <time>2026-05-05T11:45:52.014Z</time>
      </trkpt>
      <trkpt lat="50.928164" lon="-0.096715">
        <ele>50.186814</ele>
        <time>2026-05-05T11:45:59.521Z</time>
      </trkpt>
      <trkpt lat="50.928136" lon="-0.096722">
        <ele>50.157616</ele>
        <time>2026-05-05T11:45:59.919Z</time>
      </trkpt>
      <trkpt lat="50.928107" lon="-0.096728">
        <ele>50.127490</ele>
        <time>2026-05-05T11:46:00.328Z</time>
      </trkpt>
      <trkpt lat="50.927437" lon="-0.096974">
        <ele>49.419098</ele>
        <time>2026-05-05T11:46:09.577Z</time>
      </trkpt>
      <trkpt lat="50.926535" lon="-0.097288">
        <ele>48.614141</ele>
        <time>2026-05-05T11:46:23.035Z</time>
      </trkpt>
      <trkpt lat="50.926160" lon="-0.097426">
        <ele>48.759768</ele>
        <time>2026-05-05T11:46:29.603Z</time>
      </trkpt>
      <trkpt lat="50.924537" lon="-0.097753">
        <ele>49.771720</ele>
        <time>2026-05-05T11:47:04.427Z</time>
      </trkpt>
      <trkpt lat="50.923585" lon="-0.097962">
        <ele>51.293273</ele>
        <time>2026-05-05T11:47:29.571Z</time>
      </trkpt>
      <trkpt lat="50.923111" lon="-0.098159">
        <ele>52.069028</ele>
        <time>2026-05-05T11:47:43.111Z</time>
      </trkpt>
      <trkpt lat="50.922845" lon="-0.098316">
        <ele>52.507809</ele>
        <time>2026-05-05T11:47:50.954Z</time>
      </trkpt>
      <trkpt lat="50.922196" lon="-0.098690">
        <ele>53.573233</ele>
        <time>2026-05-05T11:48:09.474Z</time>
      </trkpt>
      <trkpt lat="50.921732" lon="-0.099013">
        <ele>54.355078</ele>
        <time>2026-05-05T11:48:21.609Z</time>
      </trkpt>
      <trkpt lat="50.921704" lon="-0.099025">
        <ele>54.399831</ele>
        <time>2026-05-05T11:48:22.305Z</time>
      </trkpt>
      <trkpt lat="50.921591" lon="-0.098404">
        <ele>55.056678</ele>
        <time>2026-05-05T11:48:31.373Z</time>
      </trkpt>
      <trkpt lat="50.921393" lon="-0.098480">
        <ele>55.429856</ele>
        <time>2026-05-05T11:48:59.462Z</time>
      </trkpt>
      <trkpt lat="50.921591" lon="-0.098404">
        <ele>55.803033</ele>
        <time>2026-05-05T11:49:27.519Z</time>
      </trkpt>
      <trkpt lat="50.921704" lon="-0.099025">
        <ele>56.549430</ele>
        <time>2026-05-05T11:49:36.773Z</time>
      </trkpt>
      <trkpt lat="50.921670" lon="-0.099039">
        <ele>56.613778</ele>
        <time>2026-05-05T11:49:37.653Z</time>
      </trkpt>
      <trkpt lat="50.920839" lon="-0.099394">
        <ele>58.199959</ele>
        <time>2026-05-05T11:50:02.772Z</time>
      </trkpt>
      <trkpt lat="50.919897" lon="-0.099819">
        <ele>60.997062</ele>
        <time>2026-05-05T11:50:37.850Z</time>
      </trkpt>
      <trkpt lat="50.919134" lon="-0.100326">
        <ele>63.323255</ele>
        <time>2026-05-05T11:51:03.051Z</time>
      </trkpt>
      <trkpt lat="50.918680" lon="-0.100491">
        <ele>63.677298</ele>
        <time>2026-05-05T11:51:13.293Z</time>
      </trkpt>
      <trkpt lat="50.918495" lon="-0.100567">
        <ele>63.822562</ele>
        <time>2026-05-05T11:51:17.209Z</time>
      </trkpt>
      <trkpt lat="50.918318" lon="-0.100637">
        <ele>63.961225</ele>
        <time>2026-05-05T11:51:20.914Z</time>
      </trkpt>
      <trkpt lat="50.917551" lon="-0.100712">
        <ele>64.545354</ele>
        <time>2026-05-05T11:51:35.981Z</time>
      </trkpt>
      <trkpt lat="50.917570" lon="-0.100872">
        <ele>64.623377</ele>
        <time>2026-05-05T11:51:38.050Z</time>
      </trkpt>
      <trkpt lat="50.917623" lon="-0.101668">
        <ele>64.448909</ele>
        <time>2026-05-05T11:51:48.180Z</time>
      </trkpt>
      <trkpt lat="50.917702" lon="-0.103011">
        <ele>64.001262</ele>
        <time>2026-05-05T11:52:01.809Z</time>
      </trkpt>
      <trkpt lat="50.917771" lon="-0.104057">
        <ele>63.669244</ele>
        <time>2026-05-05T11:52:10.931Z</time>
      </trkpt>
      <trkpt lat="50.917809" lon="-0.104668">
        <ele>63.509848</ele>
        <time>2026-05-05T11:52:16.269Z</time>
      </trkpt>
      <trkpt lat="50.917820" lon="-0.104814">
        <ele>63.471675</ele>
        <time>2026-05-05T11:52:17.560Z</time>
      </trkpt>
      <trkpt lat="50.917833" lon="-0.104955">
        <ele>63.434679</ele>
        <time>2026-05-05T11:52:18.837Z</time>
      </trkpt>
      <trkpt lat="50.917877" lon="-0.105427">
        <ele>63.310808</ele>
        <time>2026-05-05T11:52:23.417Z</time>
      </trkpt>
      <trkpt lat="50.917941" lon="-0.106166">
        <ele>63.117150</ele>
        <time>2026-05-05T11:52:32.333Z</time>
      </trkpt>
      <trkpt lat="50.917971" lon="-0.106550">
        <ele>63.016695</ele>
        <time>2026-05-05T11:52:37.884Z</time>
      </trkpt>
      <trkpt lat="50.917972" lon="-0.106573">
        <ele>63.010710</ele>
        <time>2026-05-05T11:52:38.251Z</time>
      </trkpt>
      <trkpt lat="50.917989" lon="-0.106838">
        <ele>63.022583</ele>
        <time>2026-05-05T11:52:42.193Z</time>
      </trkpt>
      <trkpt lat="50.918001" lon="-0.107009">
        <ele>63.053085</ele>
        <time>2026-05-05T11:52:44.705Z</time>
      </trkpt>
      <trkpt lat="50.918064" lon="-0.107830">
        <ele>63.199707</ele>
        <time>2026-05-05T11:52:56.237Z</time>
      </trkpt>
      <trkpt lat="50.918089" lon="-0.108085">
        <ele>63.245457</ele>
        <time>2026-05-05T11:52:59.578Z</time>
      </trkpt>
      <trkpt lat="50.918142" lon="-0.108337">
        <ele>63.292552</ele>
        <time>2026-05-05T11:53:02.900Z</time>
      </trkpt>
      <trkpt lat="50.918305" lon="-0.108895">
        <ele>63.401577</ele>
        <time>2026-05-05T11:53:09.853Z</time>
      </trkpt>
      <trkpt lat="50.918385" lon="-0.109067">
        <ele>63.439470</ele>
        <time>2026-05-05T11:53:12.064Z</time>
      </trkpt>
      <trkpt lat="50.918510" lon="-0.109323">
        <ele>63.492566</ele>
        <time>2026-05-05T11:53:15.291Z</time>
      </trkpt>
      <trkpt lat="50.918863" lon="-0.109991">
        <ele>63.165406</ele>
        <time>2026-05-05T11:53:23.387Z</time>
      </trkpt>
      <trkpt lat="50.919103" lon="-0.110408">
        <ele>62.953476</ele>
        <time>2026-05-05T11:53:28.523Z</time>
      </trkpt>
      <trkpt lat="50.919216" lon="-0.110611">
        <ele>62.851831</ele>
        <time>2026-05-05T11:53:31.091Z</time>
      </trkpt>
      <trkpt lat="50.919437" lon="-0.111025">
        <ele>62.648219</ele>
        <time>2026-05-05T11:53:36.528Z</time>
      </trkpt>
      <trkpt lat="50.919466" lon="-0.111078">
        <ele>62.621878</ele>
        <time>2026-05-05T11:53:37.241Z</time>
      </trkpt>
      <trkpt lat="50.919693" lon="-0.111469">
        <ele>62.425773</ele>
        <time>2026-05-05T11:53:42.907Z</time>
      </trkpt>
      <trkpt lat="50.920454" lon="-0.112816">
        <ele>62.771936</ele>
        <time>2026-05-05T11:54:04.062Z</time>
      </trkpt>
      <trkpt lat="50.920612" lon="-0.113263">
        <ele>62.870012</ele>
        <time>2026-05-05T11:54:11.077Z</time>
      </trkpt>
      <trkpt lat="50.920683" lon="-0.113514">
        <ele>62.922662</ele>
        <time>2026-05-05T11:54:14.984Z</time>
      </trkpt>
      <trkpt lat="50.920746" lon="-0.113886">
        <ele>62.931080</ele>
        <time>2026-05-05T11:54:20.188Z</time>
      </trkpt>
      <trkpt lat="50.920778" lon="-0.114065">
        <ele>62.876270</ele>
        <time>2026-05-05T11:54:22.643Z</time>
      </trkpt>
      <trkpt lat="50.920848" lon="-0.114378">
        <ele>62.778436</ele>
        <time>2026-05-05T11:54:26.825Z</time>
      </trkpt>
      <trkpt lat="50.920993" lon="-0.114910">
        <ele>62.607699</ele>
        <time>2026-05-05T11:54:33.365Z</time>
      </trkpt>
      <trkpt lat="50.921081" lon="-0.115388">
        <ele>62.461008</ele>
        <time>2026-05-05T11:54:38.524Z</time>
      </trkpt>
      <trkpt lat="50.921194" lon="-0.115998">
        <ele>62.273717</ele>
        <time>2026-05-05T11:54:44.738Z</time>
      </trkpt>
      <trkpt lat="50.921222" lon="-0.116154">
        <ele>62.225937</ele>
        <time>2026-05-05T11:54:46.221Z</time>
      </trkpt>
      <trkpt lat="50.921382" lon="-0.116935">
        <ele>61.429636</ele>
        <time>2026-05-05T11:54:52.933Z</time>
      </trkpt>
      <trkpt lat="50.921493" lon="-0.117460">
        <ele>60.647697</ele>
        <time>2026-05-05T11:54:57.290Z</time>
      </trkpt>
      <trkpt lat="50.921499" lon="-0.117580">
        <ele>60.477713</ele>
        <time>2026-05-05T11:54:58.234Z</time>
      </trkpt>
      <trkpt lat="50.921469" lon="-0.118392">
        <ele>59.329121</ele>
        <time>2026-05-05T11:55:04.637Z</time>
      </trkpt>
      <trkpt lat="50.921297" lon="-0.121849">
        <ele>55.511646</ele>
        <time>2026-05-05T11:55:33.739Z</time>
      </trkpt>
      <trkpt lat="50.921293" lon="-0.121926">
        <ele>55.434642</ele>
        <time>2026-05-05T11:55:34.559Z</time>
      </trkpt>
      <trkpt lat="50.921183" lon="-0.123589">
        <ele>55.275796</ele>
        <time>2026-05-05T11:55:52.802Z</time>
      </trkpt>
      <trkpt lat="50.921134" lon="-0.124457">
        <ele>55.286545</ele>
        <time>2026-05-05T11:56:04.126Z</time>
      </trkpt>
      <trkpt lat="50.921020" lon="-0.126214">
        <ele>55.461513</ele>
        <time>2026-05-05T11:56:25.894Z</time>
      </trkpt>
      <trkpt lat="50.921011" lon="-0.126637">
        <ele>55.517433</ele>
        <time>2026-05-05T11:56:30.926Z</time>
      </trkpt>
      <trkpt lat="50.921188" lon="-0.127685">
        <ele>55.660779</ele>
        <time>2026-05-05T11:56:43.439Z</time>
      </trkpt>
      <trkpt lat="50.921204" lon="-0.127758">
        <ele>55.667966</ele>
        <time>2026-05-05T11:56:44.300Z</time>
      </trkpt>
      <trkpt lat="50.921351" lon="-0.128446">
        <ele>55.565179</ele>
        <time>2026-05-05T11:56:51.754Z</time>
      </trkpt>
      <trkpt lat="50.921426" lon="-0.128794">
        <ele>55.513141</ele>
        <time>2026-05-05T11:56:55.497Z</time>
      </trkpt>
      <trkpt lat="50.921473" lon="-0.129014">
        <ele>55.480273</ele>
        <time>2026-05-05T11:56:57.924Z</time>
      </trkpt>
      <trkpt lat="50.921495" lon="-0.129206">
        <ele>55.452662</ele>
        <time>2026-05-05T11:57:00.033Z</time>
      </trkpt>
      <trkpt lat="50.921509" lon="-0.129658">
        <ele>55.388630</ele>
        <time>2026-05-05T11:57:05.117Z</time>
      </trkpt>
      <trkpt lat="50.921518" lon="-0.129766">
        <ele>55.373216</ele>
        <time>2026-05-05T11:57:06.306Z</time>
      </trkpt>
      <trkpt lat="50.921537" lon="-0.130047">
        <ele>55.333228</ele>
        <time>2026-05-05T11:57:09.296Z</time>
      </trkpt>
      <trkpt lat="50.921555" lon="-0.130335">
        <ele>55.292279</ele>
        <time>2026-05-05T11:57:12.270Z</time>
      </trkpt>
      <trkpt lat="50.921602" lon="-0.130526">
        <ele>55.263547</ele>
        <time>2026-05-05T11:57:14.393Z</time>
      </trkpt>
      <trkpt lat="50.921712" lon="-0.130891">
        <ele>55.212572</ele>
        <time>2026-05-05T11:57:18.584Z</time>
      </trkpt>
      <trkpt lat="50.921788" lon="-0.131144">
        <ele>55.177261</ele>
        <time>2026-05-05T11:57:21.480Z</time>
      </trkpt>
      <trkpt lat="50.921811" lon="-0.131236">
        <ele>55.164791</ele>
        <time>2026-05-05T11:57:22.525Z</time>
      </trkpt>
      <trkpt lat="50.921845" lon="-0.131370">
        <ele>55.146591</ele>
        <time>2026-05-05T11:57:24.104Z</time>
      </trkpt>
      <trkpt lat="50.921949" lon="-0.131753">
        <ele>55.094047</ele>
        <time>2026-05-05T11:57:28.807Z</time>
      </trkpt>
      <trkpt lat="50.921991" lon="-0.131832">
        <ele>55.081026</ele>
        <time>2026-05-05T11:57:29.968Z</time>
      </trkpt>
      <trkpt lat="50.922198" lon="-0.132017">
        <ele>55.033538</ele>
        <time>2026-05-05T11:57:34.230Z</time>
      </trkpt>
      <trkpt lat="50.922377" lon="-0.132210">
        <ele>54.990279</ele>
        <time>2026-05-05T11:57:37.936Z</time>
      </trkpt>
      <trkpt lat="50.922405" lon="-0.132337">
        <ele>54.973327</ele>
        <time>2026-05-05T11:57:39.380Z</time>
      </trkpt>
      <trkpt lat="50.922419" lon="-0.132458">
        <ele>54.957827</ele>
        <time>2026-05-05T11:57:40.654Z</time>
      </trkpt>
      <trkpt lat="50.922500" lon="-0.133107">
        <ele>54.679684</ele>
        <time>2026-05-05T11:57:47.623Z</time>
      </trkpt>
      <trkpt lat="50.922519" lon="-0.133294">
        <ele>54.509842</ele>
        <time>2026-05-05T11:57:49.644Z</time>
      </trkpt>
      <trkpt lat="50.922554" lon="-0.133749">
        <ele>54.098828</ele>
        <time>2026-05-05T11:57:54.251Z</time>
      </trkpt>
      <trkpt lat="50.922578" lon="-0.133920">
        <ele>53.941743</ele>
        <time>2026-05-05T11:57:55.872Z</time>
      </trkpt>
      <trkpt lat="50.922673" lon="-0.134397">
        <ele>53.493190</ele>
        <time>2026-05-05T11:58:00.285Z</time>
      </trkpt>
      <trkpt lat="50.922855" lon="-0.134991">
        <ele>52.900983</ele>
        <time>2026-05-05T11:58:05.840Z</time>
      </trkpt>
      <trkpt lat="50.922933" lon="-0.135207">
        <ele>52.677774</ele>
        <time>2026-05-05T11:58:07.858Z</time>
      </trkpt>
      <trkpt lat="50.923085" lon="-0.135651">
        <ele>52.086352</ele>
        <time>2026-05-05T11:58:11.896Z</time>
      </trkpt>
      <trkpt lat="50.923219" lon="-0.136213">
        <ele>50.941889</ele>
        <time>2026-05-05T11:58:16.561Z</time>
      </trkpt>
      <trkpt lat="50.923266" lon="-0.136447">
        <ele>50.474109</ele>
        <time>2026-05-05T11:58:18.453Z</time>
      </trkpt>
      <trkpt lat="50.923417" lon="-0.137186">
        <ele>48.994433</ele>
        <time>2026-05-05T11:58:24.343Z</time>
      </trkpt>
      <trkpt lat="50.923502" lon="-0.137926">
        <ele>47.561748</ele>
        <time>2026-05-05T11:58:30.093Z</time>
      </trkpt>
      <trkpt lat="50.923532" lon="-0.138168">
        <ele>47.091983</ele>
        <time>2026-05-05T11:58:31.968Z</time>
      </trkpt>
      <trkpt lat="50.923583" lon="-0.138529">
        <ele>46.711190</ele>
        <time>2026-05-05T11:58:34.818Z</time>
      </trkpt>
      <trkpt lat="50.923659" lon="-0.138897">
        <ele>46.428004</ele>
        <time>2026-05-05T11:58:37.882Z</time>
      </trkpt>
      <trkpt lat="50.923797" lon="-0.139488">
        <ele>45.967120</ele>
        <time>2026-05-05T11:58:43.149Z</time>
      </trkpt>
      <trkpt lat="50.923847" lon="-0.139707">
        <ele>45.796790</ele>
        <time>2026-05-05T11:58:45.194Z</time>
      </trkpt>
      <trkpt lat="50.923925" lon="-0.139988">
        <ele>45.572260</ele>
        <time>2026-05-05T11:58:48.005Z</time>
      </trkpt>
      <trkpt lat="50.924013" lon="-0.140270">
        <ele>45.342154</ele>
        <time>2026-05-05T11:58:51.110Z</time>
      </trkpt>
      <trkpt lat="50.924211" lon="-0.140899">
        <ele>44.828019</ele>
        <time>2026-05-05T11:58:59.649Z</time>
      </trkpt>
      <trkpt lat="50.924253" lon="-0.141067">
        <ele>45.063983</ele>
        <time>2026-05-05T11:59:02.287Z</time>
      </trkpt>
      <trkpt lat="50.924274" lon="-0.141110">
        <ele>45.136372</ele>
        <time>2026-05-05T11:59:03.099Z</time>
      </trkpt>
      <trkpt lat="50.924310" lon="-0.141316">
        <ele>45.420856</ele>
        <time>2026-05-05T11:59:06.567Z</time>
      </trkpt>
      <trkpt lat="50.924357" lon="-0.142158">
        <ele>46.545766</ele>
        <time>2026-05-05T11:59:22.470Z</time>
      </trkpt>
      <trkpt lat="50.924365" lon="-0.142342">
        <ele>46.791213</ele>
        <time>2026-05-05T11:59:26.049Z</time>
      </trkpt>
      <trkpt lat="50.924404" lon="-0.143050">
        <ele>47.737003</ele>
        <time>2026-05-05T11:59:40.004Z</time>
      </trkpt>
      <trkpt lat="50.924409" lon="-0.143624">
        <ele>48.500948</ele>
        <time>2026-05-05T11:59:51.153Z</time>
      </trkpt>
      <trkpt lat="50.924375" lon="-0.143742">
        <ele>48.623711</ele>
        <time>2026-05-05T11:59:53.555Z</time>
      </trkpt>
      <trkpt lat="50.924221" lon="-0.144889">
        <ele>48.623711</ele>
        <time>2026-05-05T12:00:13.216Z</time>
      </trkpt>
      <trkpt lat="50.924267" lon="-0.144898">
        <ele>48.623711</ele>
        <time>2026-05-05T12:00:16.443Z</time>
      </trkpt>
      <trkpt lat="50.924283" lon="-0.144725">
        <ele>48.623711</ele>
        <time>2026-05-05T12:00:24.116Z</time>
      </trkpt>
      <trkpt lat="50.924313" lon="-0.144482">
        <ele>48.623711</ele>
        <time>2026-05-05T12:00:34.964Z</time>
      </trkpt>
    </trkseg>
  </trk>
</gpx>